<?xml version="1.0" encoding="UTF-8" standalone="no" ?>
<gpx xmlns="http://www.topografix.com/GPX/1/1" xmlns:xsi="http://www.w3.org/2001/XMLSchema-instance" xsi:schemaLocation="http://www.topografix.com/GPX/1/1 http://www.topografix.com/GPX/1/1/gpx.xsd" version="1.1" creator="VisuGPX - https://www.visugpx.com">
  <metadata>
    <name>RSPG Maïra Celle Macra Palent</name>
    <desc><![CDATA[Au départ du petit village de COMBE  suivre le sentier balisé qui va de village en village passer par le Village de Palent pour revenir sur le point de départ à Combe.
]]></desc>
  </metadata>
  <trk>
    <name><![CDATA[Maira Celle Macra Palent: 28 JUIL 2018 10:45]]></name>
    <trkseg>
      <trkpt lat="44.47724" lon="7.15732">
        <ele>1055.67</ele>
        <time>2018-07-28T08:45:20Z</time>
      </trkpt>
      <trkpt lat="44.47725" lon="7.15731">
        <ele>1055.18</ele>
        <time>2018-07-28T08:45:21Z</time>
      </trkpt>
      <trkpt lat="44.47727" lon="7.15731">
        <ele>1057.11</ele>
        <time>2018-07-28T08:45:24Z</time>
      </trkpt>
      <trkpt lat="44.47729" lon="7.15733">
        <ele>1060.95</ele>
        <time>2018-07-28T08:45:27Z</time>
      </trkpt>
      <trkpt lat="44.47731" lon="7.15733">
        <ele>1064.8</ele>
        <time>2018-07-28T08:45:30Z</time>
      </trkpt>
      <trkpt lat="44.47733" lon="7.15732">
        <ele>1067.68</ele>
        <time>2018-07-28T08:45:33Z</time>
      </trkpt>
      <trkpt lat="44.47735" lon="7.15732">
        <ele>1072.01</ele>
        <time>2018-07-28T08:45:37Z</time>
      </trkpt>
      <trkpt lat="44.47739" lon="7.15732">
        <ele>1075.85</ele>
        <time>2018-07-28T08:45:42Z</time>
      </trkpt>
      <trkpt lat="44.47742" lon="7.15731">
        <ele>1079.22</ele>
        <time>2018-07-28T08:45:47Z</time>
      </trkpt>
      <trkpt lat="44.47743" lon="7.15732">
        <ele>1079.7</ele>
        <time>2018-07-28T08:45:48Z</time>
      </trkpt>
      <trkpt lat="44.47746" lon="7.15731">
        <ele>1081.62</ele>
        <time>2018-07-28T08:45:51Z</time>
      </trkpt>
      <trkpt lat="44.47748" lon="7.15731">
        <ele>1083.06</ele>
        <time>2018-07-28T08:45:54Z</time>
      </trkpt>
      <trkpt lat="44.47752" lon="7.15731">
        <ele>1086.43</ele>
        <time>2018-07-28T08:45:59Z</time>
      </trkpt>
      <trkpt lat="44.47753" lon="7.15731">
        <ele>1086.43</ele>
        <time>2018-07-28T08:46:00Z</time>
      </trkpt>
      <trkpt lat="44.47755" lon="7.15731">
        <ele>1088.35</ele>
        <time>2018-07-28T08:46:03Z</time>
      </trkpt>
      <trkpt lat="44.47759" lon="7.15731">
        <ele>1092.2</ele>
        <time>2018-07-28T08:46:09Z</time>
      </trkpt>
      <trkpt lat="44.47765" lon="7.1573">
        <ele>1095.56</ele>
        <time>2018-07-28T08:46:20Z</time>
      </trkpt>
      <trkpt lat="44.47766" lon="7.1573">
        <ele>1095.56</ele>
        <time>2018-07-28T08:46:21Z</time>
      </trkpt>
      <trkpt lat="44.47771" lon="7.15728">
        <ele>1098.92</ele>
        <time>2018-07-28T08:46:29Z</time>
      </trkpt>
      <trkpt lat="44.47777" lon="7.1573">
        <ele>1101.81</ele>
        <time>2018-07-28T08:46:38Z</time>
      </trkpt>
      <trkpt lat="44.47784" lon="7.15732">
        <ele>1105.17</ele>
        <time>2018-07-28T08:46:51Z</time>
      </trkpt>
      <trkpt lat="44.47793" lon="7.15733">
        <ele>1107.58</ele>
        <time>2018-07-28T08:47:05Z</time>
      </trkpt>
      <trkpt lat="44.47799" lon="7.15726">
        <ele>1110.94</ele>
        <time>2018-07-28T08:47:18Z</time>
      </trkpt>
      <trkpt lat="44.47805" lon="7.15722">
        <ele>1113.82</ele>
        <time>2018-07-28T08:47:32Z</time>
      </trkpt>
      <trkpt lat="44.47813" lon="7.15723">
        <ele>1116.23</ele>
        <time>2018-07-28T08:47:48Z</time>
      </trkpt>
      <trkpt lat="44.47824" lon="7.15727">
        <ele>1118.63</ele>
        <time>2018-07-28T08:48:04Z</time>
      </trkpt>
      <trkpt lat="44.47833" lon="7.15731">
        <ele>1121.52</ele>
        <time>2018-07-28T08:48:22Z</time>
      </trkpt>
      <trkpt lat="44.47845" lon="7.15731">
        <ele>1123.44</ele>
        <time>2018-07-28T08:48:41Z</time>
      </trkpt>
      <trkpt lat="44.47851" lon="7.15725">
        <ele>1125.84</ele>
        <time>2018-07-28T08:48:56Z</time>
      </trkpt>
      <trkpt lat="44.47863" lon="7.15723">
        <ele>1127.28</ele>
        <time>2018-07-28T08:49:12Z</time>
      </trkpt>
      <trkpt lat="44.47872" lon="7.15726">
        <ele>1128.24</ele>
        <time>2018-07-28T08:49:28Z</time>
      </trkpt>
      <trkpt lat="44.47884" lon="7.15727">
        <ele>1131.13</ele>
        <time>2018-07-28T08:49:45Z</time>
      </trkpt>
      <trkpt lat="44.47892" lon="7.15732">
        <ele>1134.49</ele>
        <time>2018-07-28T08:50:03Z</time>
      </trkpt>
      <trkpt lat="44.47898" lon="7.15728">
        <ele>1137.38</ele>
        <time>2018-07-28T08:50:20Z</time>
      </trkpt>
      <trkpt lat="44.47903" lon="7.1572">
        <ele>1140.26</ele>
        <time>2018-07-28T08:50:36Z</time>
      </trkpt>
      <trkpt lat="44.47899" lon="7.15715">
        <ele>1143.63</ele>
        <time>2018-07-28T08:50:54Z</time>
      </trkpt>
      <trkpt lat="44.47892" lon="7.15706">
        <ele>1145.55</ele>
        <time>2018-07-28T08:51:10Z</time>
      </trkpt>
      <trkpt lat="44.47888" lon="7.15704">
        <ele>1148.43</ele>
        <time>2018-07-28T08:51:25Z</time>
      </trkpt>
      <trkpt lat="44.47884" lon="7.15697">
        <ele>1150.35</ele>
        <time>2018-07-28T08:51:39Z</time>
      </trkpt>
      <trkpt lat="44.47883" lon="7.15689">
        <ele>1153.24</ele>
        <time>2018-07-28T08:51:55Z</time>
      </trkpt>
      <trkpt lat="44.4789" lon="7.15684">
        <ele>1155.64</ele>
        <time>2018-07-28T08:52:11Z</time>
      </trkpt>
      <trkpt lat="44.47899" lon="7.15678">
        <ele>1159.01</ele>
        <time>2018-07-28T08:52:29Z</time>
      </trkpt>
      <trkpt lat="44.47897" lon="7.15671">
        <ele>1160.93</ele>
        <time>2018-07-28T08:52:46Z</time>
      </trkpt>
      <trkpt lat="44.47898" lon="7.15664">
        <ele>1162.37</ele>
        <time>2018-07-28T08:53:06Z</time>
      </trkpt>
      <trkpt lat="44.47899" lon="7.15662">
        <ele>1164.77</ele>
        <time>2018-07-28T08:53:19Z</time>
      </trkpt>
      <trkpt lat="44.47897" lon="7.15654">
        <ele>1166.7</ele>
        <time>2018-07-28T08:53:33Z</time>
      </trkpt>
      <trkpt lat="44.47899" lon="7.15651">
        <ele>1168.14</ele>
        <time>2018-07-28T08:53:48Z</time>
      </trkpt>
      <trkpt lat="44.47901" lon="7.15643">
        <ele>1170.06</ele>
        <time>2018-07-28T08:54:03Z</time>
      </trkpt>
      <trkpt lat="44.47903" lon="7.15636">
        <ele>1172.47</ele>
        <time>2018-07-28T08:54:20Z</time>
      </trkpt>
      <trkpt lat="44.47902" lon="7.1563">
        <ele>1174.87</ele>
        <time>2018-07-28T08:54:37Z</time>
      </trkpt>
      <trkpt lat="44.47903" lon="7.1562">
        <ele>1177.27</ele>
        <time>2018-07-28T08:54:55Z</time>
      </trkpt>
      <trkpt lat="44.47901" lon="7.15613">
        <ele>1179.67</ele>
        <time>2018-07-28T08:55:11Z</time>
      </trkpt>
      <trkpt lat="44.47901" lon="7.15604">
        <ele>1181.12</ele>
        <time>2018-07-28T08:55:25Z</time>
      </trkpt>
      <trkpt lat="44.47905" lon="7.15601">
        <ele>1184.48</ele>
        <time>2018-07-28T08:55:42Z</time>
      </trkpt>
      <trkpt lat="44.4791" lon="7.156">
        <ele>1186.4</ele>
        <time>2018-07-28T08:55:56Z</time>
      </trkpt>
      <trkpt lat="44.4791" lon="7.15592">
        <ele>1189.77</ele>
        <time>2018-07-28T08:56:13Z</time>
      </trkpt>
      <trkpt lat="44.47914" lon="7.15585">
        <ele>1191.21</ele>
        <time>2018-07-28T08:56:30Z</time>
      </trkpt>
      <trkpt lat="44.47915" lon="7.15581">
        <ele>1193.13</ele>
        <time>2018-07-28T08:56:44Z</time>
      </trkpt>
      <trkpt lat="44.47921" lon="7.15575">
        <ele>1195.54</ele>
        <time>2018-07-28T08:57:01Z</time>
      </trkpt>
      <trkpt lat="44.47916" lon="7.15572">
        <ele>1198.42</ele>
        <time>2018-07-28T08:57:18Z</time>
      </trkpt>
      <trkpt lat="44.47912" lon="7.1556">
        <ele>1197.94</ele>
        <time>2018-07-28T08:57:33Z</time>
      </trkpt>
      <trkpt lat="44.47912" lon="7.15551">
        <ele>1198.9</ele>
        <time>2018-07-28T08:57:49Z</time>
      </trkpt>
      <trkpt lat="44.47912" lon="7.15556">
        <ele>1198.9</ele>
        <time>2018-07-28T08:58:12Z</time>
      </trkpt>
      <trkpt lat="44.47913" lon="7.15554">
        <ele>1198.9</ele>
        <time>2018-07-28T08:58:43Z</time>
      </trkpt>
      <trkpt lat="44.47912" lon="7.15555">
        <ele>1199.38</ele>
        <time>2018-07-28T08:59:14Z</time>
      </trkpt>
      <trkpt lat="44.47912" lon="7.15553">
        <ele>1198.9</ele>
        <time>2018-07-28T08:59:48Z</time>
      </trkpt>
      <trkpt lat="44.47914" lon="7.1556">
        <ele>1198.9</ele>
        <time>2018-07-28T09:00:17Z</time>
      </trkpt>
      <trkpt lat="44.47914" lon="7.1556">
        <ele>1198.9</ele>
        <time>2018-07-28T09:00:44Z</time>
      </trkpt>
      <trkpt lat="44.47912" lon="7.15556">
        <ele>1198.9</ele>
        <time>2018-07-28T09:01:06Z</time>
      </trkpt>
      <trkpt lat="44.4791" lon="7.15556">
        <ele>1198.9</ele>
        <time>2018-07-28T09:01:32Z</time>
      </trkpt>
      <trkpt lat="44.47911" lon="7.15556">
        <ele>1198.9</ele>
        <time>2018-07-28T09:01:59Z</time>
      </trkpt>
      <trkpt lat="44.47912" lon="7.15558">
        <ele>1198.9</ele>
        <time>2018-07-28T09:02:20Z</time>
      </trkpt>
      <trkpt lat="44.47911" lon="7.15554">
        <ele>1198.9</ele>
        <time>2018-07-28T09:02:56Z</time>
      </trkpt>
      <trkpt lat="44.4791" lon="7.15546">
        <ele>1199.86</ele>
        <time>2018-07-28T09:03:19Z</time>
      </trkpt>
      <trkpt lat="44.47908" lon="7.15537">
        <ele>1201.79</ele>
        <time>2018-07-28T09:03:35Z</time>
      </trkpt>
      <trkpt lat="44.47899" lon="7.15529">
        <ele>1204.19</ele>
        <time>2018-07-28T09:03:55Z</time>
      </trkpt>
      <trkpt lat="44.47887" lon="7.15524">
        <ele>1204.19</ele>
        <time>2018-07-28T09:04:09Z</time>
      </trkpt>
      <trkpt lat="44.47879" lon="7.15521">
        <ele>1205.63</ele>
        <time>2018-07-28T09:04:24Z</time>
      </trkpt>
      <trkpt lat="44.47871" lon="7.15522">
        <ele>1206.59</ele>
        <time>2018-07-28T09:04:38Z</time>
      </trkpt>
      <trkpt lat="44.4786" lon="7.15519">
        <ele>1208.03</ele>
        <time>2018-07-28T09:04:55Z</time>
      </trkpt>
      <trkpt lat="44.47866" lon="7.15512">
        <ele>1209.48</ele>
        <time>2018-07-28T09:05:07Z</time>
      </trkpt>
      <trkpt lat="44.47883" lon="7.15506">
        <ele>1210.44</ele>
        <time>2018-07-28T09:05:26Z</time>
      </trkpt>
      <trkpt lat="44.47896" lon="7.15501">
        <ele>1212.36</ele>
        <time>2018-07-28T09:05:44Z</time>
      </trkpt>
      <trkpt lat="44.47912" lon="7.15504">
        <ele>1213.8</ele>
        <time>2018-07-28T09:06:03Z</time>
      </trkpt>
      <trkpt lat="44.47927" lon="7.15505">
        <ele>1215.72</ele>
        <time>2018-07-28T09:06:21Z</time>
      </trkpt>
      <trkpt lat="44.47936" lon="7.15499">
        <ele>1216.69</ele>
        <time>2018-07-28T09:06:35Z</time>
      </trkpt>
      <trkpt lat="44.47947" lon="7.15491">
        <ele>1217.65</ele>
        <time>2018-07-28T09:06:50Z</time>
      </trkpt>
      <trkpt lat="44.47955" lon="7.15481">
        <ele>1218.13</ele>
        <time>2018-07-28T09:07:04Z</time>
      </trkpt>
      <trkpt lat="44.47961" lon="7.15471">
        <ele>1219.57</ele>
        <time>2018-07-28T09:07:17Z</time>
      </trkpt>
      <trkpt lat="44.47967" lon="7.15456">
        <ele>1220.53</ele>
        <time>2018-07-28T09:07:33Z</time>
      </trkpt>
      <trkpt lat="44.47982" lon="7.15455">
        <ele>1221.49</ele>
        <time>2018-07-28T09:07:47Z</time>
      </trkpt>
      <trkpt lat="44.47997" lon="7.15462">
        <ele>1223.42</ele>
        <time>2018-07-28T09:08:05Z</time>
      </trkpt>
      <trkpt lat="44.48009" lon="7.15471">
        <ele>1224.86</ele>
        <time>2018-07-28T09:08:20Z</time>
      </trkpt>
      <trkpt lat="44.48017" lon="7.15487">
        <ele>1225.82</ele>
        <time>2018-07-28T09:08:36Z</time>
      </trkpt>
      <trkpt lat="44.48021" lon="7.15502">
        <ele>1227.26</ele>
        <time>2018-07-28T09:08:50Z</time>
      </trkpt>
      <trkpt lat="44.48026" lon="7.15516">
        <ele>1228.22</ele>
        <time>2018-07-28T09:09:04Z</time>
      </trkpt>
      <trkpt lat="44.48031" lon="7.1553">
        <ele>1228.7</ele>
        <time>2018-07-28T09:09:17Z</time>
      </trkpt>
      <trkpt lat="44.48038" lon="7.15546">
        <ele>1230.62</ele>
        <time>2018-07-28T09:09:35Z</time>
      </trkpt>
      <trkpt lat="44.48049" lon="7.1556">
        <ele>1232.07</ele>
        <time>2018-07-28T09:09:52Z</time>
      </trkpt>
      <trkpt lat="44.48061" lon="7.15564">
        <ele>1233.51</ele>
        <time>2018-07-28T09:10:09Z</time>
      </trkpt>
      <trkpt lat="44.48075" lon="7.15558">
        <ele>1234.47</ele>
        <time>2018-07-28T09:10:26Z</time>
      </trkpt>
      <trkpt lat="44.48088" lon="7.15564">
        <ele>1235.43</ele>
        <time>2018-07-28T09:10:43Z</time>
      </trkpt>
      <trkpt lat="44.48095" lon="7.15579">
        <ele>1237.35</ele>
        <time>2018-07-28T09:10:58Z</time>
      </trkpt>
      <trkpt lat="44.481" lon="7.156">
        <ele>1238.8</ele>
        <time>2018-07-28T09:11:17Z</time>
      </trkpt>
      <trkpt lat="44.48105" lon="7.15617">
        <ele>1240.24</ele>
        <time>2018-07-28T09:11:33Z</time>
      </trkpt>
      <trkpt lat="44.48113" lon="7.15636">
        <ele>1241.2</ele>
        <time>2018-07-28T09:11:50Z</time>
      </trkpt>
      <trkpt lat="44.48118" lon="7.1565">
        <ele>1242.64</ele>
        <time>2018-07-28T09:12:05Z</time>
      </trkpt>
      <trkpt lat="44.48122" lon="7.15664">
        <ele>1244.08</ele>
        <time>2018-07-28T09:12:19Z</time>
      </trkpt>
      <trkpt lat="44.48129" lon="7.15682">
        <ele>1245.53</ele>
        <time>2018-07-28T09:12:36Z</time>
      </trkpt>
      <trkpt lat="44.48134" lon="7.15698">
        <ele>1246.01</ele>
        <time>2018-07-28T09:12:50Z</time>
      </trkpt>
      <trkpt lat="44.48139" lon="7.15713">
        <ele>1246.97</ele>
        <time>2018-07-28T09:13:05Z</time>
      </trkpt>
      <trkpt lat="44.48144" lon="7.1573">
        <ele>1248.41</ele>
        <time>2018-07-28T09:13:20Z</time>
      </trkpt>
      <trkpt lat="44.48152" lon="7.1574">
        <ele>1249.85</ele>
        <time>2018-07-28T09:13:38Z</time>
      </trkpt>
      <trkpt lat="44.48149" lon="7.15725">
        <ele>1251.77</ele>
        <time>2018-07-28T09:13:53Z</time>
      </trkpt>
      <trkpt lat="44.48147" lon="7.15713">
        <ele>1252.74</ele>
        <time>2018-07-28T09:14:09Z</time>
      </trkpt>
      <trkpt lat="44.48147" lon="7.15712">
        <ele>1252.25</ele>
        <time>2018-07-28T09:14:28Z</time>
      </trkpt>
      <trkpt lat="44.48151" lon="7.15712">
        <ele>1253.7</ele>
        <time>2018-07-28T09:14:42Z</time>
      </trkpt>
      <trkpt lat="44.48153" lon="7.15719">
        <ele>1255.62</ele>
        <time>2018-07-28T09:14:58Z</time>
      </trkpt>
      <trkpt lat="44.48155" lon="7.15719">
        <ele>1256.58</ele>
        <time>2018-07-28T09:15:14Z</time>
      </trkpt>
      <trkpt lat="44.48153" lon="7.1571">
        <ele>1259.46</ele>
        <time>2018-07-28T09:15:28Z</time>
      </trkpt>
      <trkpt lat="44.48155" lon="7.15701">
        <ele>1260.91</ele>
        <time>2018-07-28T09:15:43Z</time>
      </trkpt>
      <trkpt lat="44.48157" lon="7.1569">
        <ele>1262.83</ele>
        <time>2018-07-28T09:15:58Z</time>
      </trkpt>
      <trkpt lat="44.4816" lon="7.15679">
        <ele>1264.75</ele>
        <time>2018-07-28T09:16:13Z</time>
      </trkpt>
      <trkpt lat="44.48161" lon="7.15673">
        <ele>1265.71</ele>
        <time>2018-07-28T09:16:28Z</time>
      </trkpt>
      <trkpt lat="44.48163" lon="7.1567">
        <ele>1266.19</ele>
        <time>2018-07-28T09:16:51Z</time>
      </trkpt>
      <trkpt lat="44.48163" lon="7.15674">
        <ele>1265.71</ele>
        <time>2018-07-28T09:17:02Z</time>
      </trkpt>
      <trkpt lat="44.48161" lon="7.15675">
        <ele>1265.71</ele>
        <time>2018-07-28T09:17:15Z</time>
      </trkpt>
      <trkpt lat="44.4816" lon="7.15675">
        <ele>1265.71</ele>
        <time>2018-07-28T09:17:44Z</time>
      </trkpt>
      <trkpt lat="44.48161" lon="7.15673">
        <ele>1266.19</ele>
        <time>2018-07-28T09:18:12Z</time>
      </trkpt>
      <trkpt lat="44.4816" lon="7.15675">
        <ele>1266.19</ele>
        <time>2018-07-28T09:18:17Z</time>
      </trkpt>
      <trkpt lat="44.48163" lon="7.15672">
        <ele>1267.16</ele>
        <time>2018-07-28T09:18:27Z</time>
      </trkpt>
      <trkpt lat="44.48162" lon="7.15677">
        <ele>1267.16</ele>
        <time>2018-07-28T09:18:44Z</time>
      </trkpt>
      <trkpt lat="44.48162" lon="7.15675">
        <ele>1267.16</ele>
        <time>2018-07-28T09:19:07Z</time>
      </trkpt>
      <trkpt lat="44.48162" lon="7.15673">
        <ele>1267.16</ele>
        <time>2018-07-28T09:19:26Z</time>
      </trkpt>
      <trkpt lat="44.48165" lon="7.15675">
        <ele>1267.16</ele>
        <time>2018-07-28T09:19:47Z</time>
      </trkpt>
      <trkpt lat="44.48164" lon="7.15673">
        <ele>1267.16</ele>
        <time>2018-07-28T09:20:10Z</time>
      </trkpt>
      <trkpt lat="44.48163" lon="7.15675">
        <ele>1267.16</ele>
        <time>2018-07-28T09:20:27Z</time>
      </trkpt>
      <trkpt lat="44.48159" lon="7.15678">
        <ele>1267.64</ele>
        <time>2018-07-28T09:20:47Z</time>
      </trkpt>
      <trkpt lat="44.48161" lon="7.15678">
        <ele>1267.64</ele>
        <time>2018-07-28T09:21:06Z</time>
      </trkpt>
      <trkpt lat="44.48163" lon="7.15678">
        <ele>1267.64</ele>
        <time>2018-07-28T09:21:27Z</time>
      </trkpt>
      <trkpt lat="44.48163" lon="7.15676">
        <ele>1267.64</ele>
        <time>2018-07-28T09:21:48Z</time>
      </trkpt>
      <trkpt lat="44.48163" lon="7.15676">
        <ele>1267.64</ele>
        <time>2018-07-28T09:22:15Z</time>
      </trkpt>
      <trkpt lat="44.48162" lon="7.15674">
        <ele>1268.6</ele>
        <time>2018-07-28T09:22:44Z</time>
      </trkpt>
      <trkpt lat="44.48164" lon="7.15673">
        <ele>1268.6</ele>
        <time>2018-07-28T09:23:03Z</time>
      </trkpt>
      <trkpt lat="44.48169" lon="7.15676">
        <ele>1270.52</ele>
        <time>2018-07-28T09:23:19Z</time>
      </trkpt>
      <trkpt lat="44.4818" lon="7.15679">
        <ele>1272.92</ele>
        <time>2018-07-28T09:23:36Z</time>
      </trkpt>
      <trkpt lat="44.4818" lon="7.15673">
        <ele>1274.36</ele>
        <time>2018-07-28T09:23:52Z</time>
      </trkpt>
      <trkpt lat="44.48175" lon="7.15663">
        <ele>1277.25</ele>
        <time>2018-07-28T09:24:07Z</time>
      </trkpt>
      <trkpt lat="44.48173" lon="7.15658">
        <ele>1278.69</ele>
        <time>2018-07-28T09:24:23Z</time>
      </trkpt>
      <trkpt lat="44.48174" lon="7.15654">
        <ele>1280.13</ele>
        <time>2018-07-28T09:24:38Z</time>
      </trkpt>
      <trkpt lat="44.48174" lon="7.15646">
        <ele>1281.09</ele>
        <time>2018-07-28T09:24:56Z</time>
      </trkpt>
      <trkpt lat="44.48173" lon="7.15633">
        <ele>1283.5</ele>
        <time>2018-07-28T09:25:12Z</time>
      </trkpt>
      <trkpt lat="44.48183" lon="7.1564">
        <ele>1285.9</ele>
        <time>2018-07-28T09:25:29Z</time>
      </trkpt>
      <trkpt lat="44.48191" lon="7.15647">
        <ele>1288.78</ele>
        <time>2018-07-28T09:25:47Z</time>
      </trkpt>
      <trkpt lat="44.48201" lon="7.15643">
        <ele>1291.19</ele>
        <time>2018-07-28T09:26:04Z</time>
      </trkpt>
      <trkpt lat="44.48209" lon="7.15639">
        <ele>1293.59</ele>
        <time>2018-07-28T09:26:22Z</time>
      </trkpt>
      <trkpt lat="44.48219" lon="7.15631">
        <ele>1295.51</ele>
        <time>2018-07-28T09:26:39Z</time>
      </trkpt>
      <trkpt lat="44.48228" lon="7.15625">
        <ele>1297.92</ele>
        <time>2018-07-28T09:26:57Z</time>
      </trkpt>
      <trkpt lat="44.48227" lon="7.15617">
        <ele>1300.32</ele>
        <time>2018-07-28T09:27:12Z</time>
      </trkpt>
      <trkpt lat="44.48217" lon="7.15619">
        <ele>1301.76</ele>
        <time>2018-07-28T09:27:26Z</time>
      </trkpt>
      <trkpt lat="44.48207" lon="7.15617">
        <ele>1302.72</ele>
        <time>2018-07-28T09:27:41Z</time>
      </trkpt>
      <trkpt lat="44.48197" lon="7.15607">
        <ele>1303.2</ele>
        <time>2018-07-28T09:27:55Z</time>
      </trkpt>
      <trkpt lat="44.48192" lon="7.15592">
        <ele>1303.2</ele>
        <time>2018-07-28T09:28:09Z</time>
      </trkpt>
      <trkpt lat="44.48193" lon="7.15574">
        <ele>1304.17</ele>
        <time>2018-07-28T09:28:24Z</time>
      </trkpt>
      <trkpt lat="44.48193" lon="7.15573">
        <ele>1304.65</ele>
        <time>2018-07-28T09:28:25Z</time>
      </trkpt>
      <trkpt lat="44.482" lon="7.15551">
        <ele>1305.13</ele>
        <time>2018-07-28T09:28:43Z</time>
      </trkpt>
      <trkpt lat="44.48205" lon="7.15552">
        <ele>1305.13</ele>
        <time>2018-07-28T09:28:59Z</time>
      </trkpt>
      <trkpt lat="44.48202" lon="7.15564">
        <ele>1305.61</ele>
        <time>2018-07-28T09:29:12Z</time>
      </trkpt>
      <trkpt lat="44.48198" lon="7.15572">
        <ele>1306.57</ele>
        <time>2018-07-28T09:29:26Z</time>
      </trkpt>
      <trkpt lat="44.48199" lon="7.15571">
        <ele>1306.57</ele>
        <time>2018-07-28T09:29:59Z</time>
      </trkpt>
      <trkpt lat="44.48197" lon="7.15573">
        <ele>1306.57</ele>
        <time>2018-07-28T09:30:25Z</time>
      </trkpt>
      <trkpt lat="44.48197" lon="7.15572">
        <ele>1306.57</ele>
        <time>2018-07-28T09:30:47Z</time>
      </trkpt>
      <trkpt lat="44.48195" lon="7.15579">
        <ele>1307.05</ele>
        <time>2018-07-28T09:31:00Z</time>
      </trkpt>
      <trkpt lat="44.48199" lon="7.15593">
        <ele>1308.01</ele>
        <time>2018-07-28T09:31:10Z</time>
      </trkpt>
      <trkpt lat="44.48206" lon="7.15603">
        <ele>1309.45</ele>
        <time>2018-07-28T09:31:26Z</time>
      </trkpt>
      <trkpt lat="44.48211" lon="7.15606">
        <ele>1310.41</ele>
        <time>2018-07-28T09:31:41Z</time>
      </trkpt>
      <trkpt lat="44.4821" lon="7.15604">
        <ele>1310.41</ele>
        <time>2018-07-28T09:31:55Z</time>
      </trkpt>
      <trkpt lat="44.48208" lon="7.15597">
        <ele>1310.9</ele>
        <time>2018-07-28T09:32:11Z</time>
      </trkpt>
      <trkpt lat="44.48208" lon="7.15597">
        <ele>1310.9</ele>
        <time>2018-07-28T09:32:30Z</time>
      </trkpt>
      <trkpt lat="44.48207" lon="7.15599">
        <ele>1310.9</ele>
        <time>2018-07-28T09:32:46Z</time>
      </trkpt>
      <trkpt lat="44.4821" lon="7.15595">
        <ele>1311.38</ele>
        <time>2018-07-28T09:33:05Z</time>
      </trkpt>
      <trkpt lat="44.48212" lon="7.15593">
        <ele>1311.86</ele>
        <time>2018-07-28T09:33:20Z</time>
      </trkpt>
      <trkpt lat="44.48212" lon="7.15591">
        <ele>1311.86</ele>
        <time>2018-07-28T09:33:45Z</time>
      </trkpt>
      <trkpt lat="44.4822" lon="7.15584">
        <ele>1313.3</ele>
        <time>2018-07-28T09:34:11Z</time>
      </trkpt>
      <trkpt lat="44.48228" lon="7.15587">
        <ele>1316.18</ele>
        <time>2018-07-28T09:34:28Z</time>
      </trkpt>
      <trkpt lat="44.48234" lon="7.15575">
        <ele>1318.59</ele>
        <time>2018-07-28T09:34:47Z</time>
      </trkpt>
      <trkpt lat="44.48238" lon="7.15564">
        <ele>1320.99</ele>
        <time>2018-07-28T09:35:05Z</time>
      </trkpt>
      <trkpt lat="44.48242" lon="7.15551">
        <ele>1321.47</ele>
        <time>2018-07-28T09:35:24Z</time>
      </trkpt>
      <trkpt lat="44.48242" lon="7.15537">
        <ele>1323.39</ele>
        <time>2018-07-28T09:35:38Z</time>
      </trkpt>
      <trkpt lat="44.48242" lon="7.15529">
        <ele>1324.83</ele>
        <time>2018-07-28T09:35:53Z</time>
      </trkpt>
      <trkpt lat="44.48249" lon="7.15515">
        <ele>1327.24</ele>
        <time>2018-07-28T09:36:11Z</time>
      </trkpt>
      <trkpt lat="44.48254" lon="7.15507">
        <ele>1329.16</ele>
        <time>2018-07-28T09:36:30Z</time>
      </trkpt>
      <trkpt lat="44.48259" lon="7.15509">
        <ele>1333.01</ele>
        <time>2018-07-28T09:36:44Z</time>
      </trkpt>
      <trkpt lat="44.48268" lon="7.15508">
        <ele>1333.97</ele>
        <time>2018-07-28T09:37:01Z</time>
      </trkpt>
      <trkpt lat="44.48274" lon="7.15504">
        <ele>1335.41</ele>
        <time>2018-07-28T09:37:14Z</time>
      </trkpt>
      <trkpt lat="44.48271" lon="7.15494">
        <ele>1337.81</ele>
        <time>2018-07-28T09:37:29Z</time>
      </trkpt>
      <trkpt lat="44.48279" lon="7.15488">
        <ele>1339.73</ele>
        <time>2018-07-28T09:37:48Z</time>
      </trkpt>
      <trkpt lat="44.48287" lon="7.15483">
        <ele>1342.62</ele>
        <time>2018-07-28T09:38:05Z</time>
      </trkpt>
      <trkpt lat="44.48297" lon="7.15478">
        <ele>1345.5</ele>
        <time>2018-07-28T09:38:25Z</time>
      </trkpt>
      <trkpt lat="44.48303" lon="7.15475">
        <ele>1347.91</ele>
        <time>2018-07-28T09:38:44Z</time>
      </trkpt>
      <trkpt lat="44.48311" lon="7.15474">
        <ele>1350.31</ele>
        <time>2018-07-28T09:39:04Z</time>
      </trkpt>
      <trkpt lat="44.48314" lon="7.15473">
        <ele>1351.27</ele>
        <time>2018-07-28T09:39:29Z</time>
      </trkpt>
      <trkpt lat="44.48314" lon="7.15472">
        <ele>1351.75</ele>
        <time>2018-07-28T09:40:06Z</time>
      </trkpt>
      <trkpt lat="44.48318" lon="7.15473">
        <ele>1351.75</ele>
        <time>2018-07-28T09:40:43Z</time>
      </trkpt>
      <trkpt lat="44.48319" lon="7.15471">
        <ele>1353.19</ele>
        <time>2018-07-28T09:41:04Z</time>
      </trkpt>
      <trkpt lat="44.48328" lon="7.15469">
        <ele>1356.08</ele>
        <time>2018-07-28T09:41:25Z</time>
      </trkpt>
      <trkpt lat="44.48338" lon="7.15472">
        <ele>1358.48</ele>
        <time>2018-07-28T09:41:43Z</time>
      </trkpt>
      <trkpt lat="44.48348" lon="7.15471">
        <ele>1360.4</ele>
        <time>2018-07-28T09:42:02Z</time>
      </trkpt>
      <trkpt lat="44.48359" lon="7.15471">
        <ele>1363.29</ele>
        <time>2018-07-28T09:42:22Z</time>
      </trkpt>
      <trkpt lat="44.48369" lon="7.15471">
        <ele>1365.21</ele>
        <time>2018-07-28T09:42:41Z</time>
      </trkpt>
      <trkpt lat="44.48378" lon="7.15463">
        <ele>1367.13</ele>
        <time>2018-07-28T09:42:58Z</time>
      </trkpt>
      <trkpt lat="44.48391" lon="7.15455">
        <ele>1368.57</ele>
        <time>2018-07-28T09:43:16Z</time>
      </trkpt>
      <trkpt lat="44.48402" lon="7.15443">
        <ele>1371.46</ele>
        <time>2018-07-28T09:43:35Z</time>
      </trkpt>
      <trkpt lat="44.48411" lon="7.15439">
        <ele>1373.38</ele>
        <time>2018-07-28T09:43:54Z</time>
      </trkpt>
      <trkpt lat="44.48422" lon="7.15434">
        <ele>1375.78</ele>
        <time>2018-07-28T09:44:11Z</time>
      </trkpt>
      <trkpt lat="44.48435" lon="7.15432">
        <ele>1377.23</ele>
        <time>2018-07-28T09:44:26Z</time>
      </trkpt>
      <trkpt lat="44.48444" lon="7.15426">
        <ele>1379.15</ele>
        <time>2018-07-28T09:44:42Z</time>
      </trkpt>
      <trkpt lat="44.48452" lon="7.15424">
        <ele>1380.11</ele>
        <time>2018-07-28T09:44:56Z</time>
      </trkpt>
      <trkpt lat="44.48463" lon="7.15425">
        <ele>1382.51</ele>
        <time>2018-07-28T09:45:14Z</time>
      </trkpt>
      <trkpt lat="44.48474" lon="7.15427">
        <ele>1383.96</ele>
        <time>2018-07-28T09:45:29Z</time>
      </trkpt>
      <trkpt lat="44.48483" lon="7.15431">
        <ele>1386.36</ele>
        <time>2018-07-28T09:45:44Z</time>
      </trkpt>
      <trkpt lat="44.48491" lon="7.15436">
        <ele>1388.28</ele>
        <time>2018-07-28T09:45:58Z</time>
      </trkpt>
      <trkpt lat="44.48498" lon="7.15436">
        <ele>1389.72</ele>
        <time>2018-07-28T09:46:13Z</time>
      </trkpt>
      <trkpt lat="44.48505" lon="7.15438">
        <ele>1391.65</ele>
        <time>2018-07-28T09:46:29Z</time>
      </trkpt>
      <trkpt lat="44.48511" lon="7.15437">
        <ele>1393.57</ele>
        <time>2018-07-28T09:46:44Z</time>
      </trkpt>
      <trkpt lat="44.48521" lon="7.15437">
        <ele>1395.97</ele>
        <time>2018-07-28T09:47:04Z</time>
      </trkpt>
      <trkpt lat="44.48529" lon="7.15441">
        <ele>1399.34</ele>
        <time>2018-07-28T09:47:18Z</time>
      </trkpt>
      <trkpt lat="44.48536" lon="7.15444">
        <ele>1400.78</ele>
        <time>2018-07-28T09:47:33Z</time>
      </trkpt>
      <trkpt lat="44.48544" lon="7.15435">
        <ele>1403.18</ele>
        <time>2018-07-28T09:47:51Z</time>
      </trkpt>
      <trkpt lat="44.48549" lon="7.15427">
        <ele>1405.58</ele>
        <time>2018-07-28T09:48:10Z</time>
      </trkpt>
      <trkpt lat="44.48556" lon="7.15418">
        <ele>1407.03</ele>
        <time>2018-07-28T09:48:28Z</time>
      </trkpt>
      <trkpt lat="44.48551" lon="7.15417">
        <ele>1407.03</ele>
        <time>2018-07-28T09:48:47Z</time>
      </trkpt>
      <trkpt lat="44.4855" lon="7.15419">
        <ele>1407.51</ele>
        <time>2018-07-28T09:49:14Z</time>
      </trkpt>
      <trkpt lat="44.4855" lon="7.15414">
        <ele>1407.51</ele>
        <time>2018-07-28T09:49:29Z</time>
      </trkpt>
      <trkpt lat="44.48553" lon="7.15413">
        <ele>1407.99</ele>
        <time>2018-07-28T09:49:49Z</time>
      </trkpt>
      <trkpt lat="44.48554" lon="7.15412">
        <ele>1407.99</ele>
        <time>2018-07-28T09:50:19Z</time>
      </trkpt>
      <trkpt lat="44.48556" lon="7.15408">
        <ele>1407.03</ele>
        <time>2018-07-28T09:50:35Z</time>
      </trkpt>
      <trkpt lat="44.48562" lon="7.15402">
        <ele>1406.55</ele>
        <time>2018-07-28T09:50:50Z</time>
      </trkpt>
      <trkpt lat="44.48563" lon="7.15395">
        <ele>1404.62</ele>
        <time>2018-07-28T09:51:02Z</time>
      </trkpt>
      <trkpt lat="44.48562" lon="7.15385">
        <ele>1401.26</ele>
        <time>2018-07-28T09:51:17Z</time>
      </trkpt>
      <trkpt lat="44.48561" lon="7.15369">
        <ele>1398.37</ele>
        <time>2018-07-28T09:51:35Z</time>
      </trkpt>
      <trkpt lat="44.48564" lon="7.15358">
        <ele>1395.01</ele>
        <time>2018-07-28T09:51:52Z</time>
      </trkpt>
      <trkpt lat="44.48568" lon="7.15347">
        <ele>1392.13</ele>
        <time>2018-07-28T09:52:08Z</time>
      </trkpt>
      <trkpt lat="44.48571" lon="7.15333">
        <ele>1389.24</ele>
        <time>2018-07-28T09:52:23Z</time>
      </trkpt>
      <trkpt lat="44.48574" lon="7.1532">
        <ele>1385.88</ele>
        <time>2018-07-28T09:52:39Z</time>
      </trkpt>
      <trkpt lat="44.48574" lon="7.15307">
        <ele>1382.51</ele>
        <time>2018-07-28T09:52:54Z</time>
      </trkpt>
      <trkpt lat="44.48576" lon="7.1529">
        <ele>1379.63</ele>
        <time>2018-07-28T09:53:11Z</time>
      </trkpt>
      <trkpt lat="44.48575" lon="7.15274">
        <ele>1376.26</ele>
        <time>2018-07-28T09:53:27Z</time>
      </trkpt>
      <trkpt lat="44.48577" lon="7.15259">
        <ele>1373.86</ele>
        <time>2018-07-28T09:53:44Z</time>
      </trkpt>
      <trkpt lat="44.48575" lon="7.15246">
        <ele>1370.98</ele>
        <time>2018-07-28T09:54:01Z</time>
      </trkpt>
      <trkpt lat="44.48573" lon="7.15237">
        <ele>1368.57</ele>
        <time>2018-07-28T09:54:16Z</time>
      </trkpt>
      <trkpt lat="44.48579" lon="7.15222">
        <ele>1365.21</ele>
        <time>2018-07-28T09:54:35Z</time>
      </trkpt>
      <trkpt lat="44.48574" lon="7.15203">
        <ele>1361.84</ele>
        <time>2018-07-28T09:54:57Z</time>
      </trkpt>
      <trkpt lat="44.48574" lon="7.15181">
        <ele>1358.96</ele>
        <time>2018-07-28T09:55:15Z</time>
      </trkpt>
      <trkpt lat="44.48578" lon="7.15164">
        <ele>1355.12</ele>
        <time>2018-07-28T09:55:36Z</time>
      </trkpt>
      <trkpt lat="44.48573" lon="7.1514">
        <ele>1353.19</ele>
        <time>2018-07-28T09:55:56Z</time>
      </trkpt>
      <trkpt lat="44.48572" lon="7.15115">
        <ele>1351.27</ele>
        <time>2018-07-28T09:56:17Z</time>
      </trkpt>
      <trkpt lat="44.48574" lon="7.15097">
        <ele>1349.83</ele>
        <time>2018-07-28T09:56:36Z</time>
      </trkpt>
      <trkpt lat="44.48577" lon="7.15067">
        <ele>1346.94</ele>
        <time>2018-07-28T09:56:59Z</time>
      </trkpt>
      <trkpt lat="44.48578" lon="7.15043">
        <ele>1345.5</ele>
        <time>2018-07-28T09:57:20Z</time>
      </trkpt>
      <trkpt lat="44.48577" lon="7.15028">
        <ele>1345.02</ele>
        <time>2018-07-28T09:57:40Z</time>
      </trkpt>
      <trkpt lat="44.48576" lon="7.14991">
        <ele>1344.06</ele>
        <time>2018-07-28T09:58:03Z</time>
      </trkpt>
      <trkpt lat="44.48577" lon="7.14954">
        <ele>1343.58</ele>
        <time>2018-07-28T09:58:29Z</time>
      </trkpt>
      <trkpt lat="44.48567" lon="7.1493">
        <ele>1345.5</ele>
        <time>2018-07-28T09:58:53Z</time>
      </trkpt>
      <trkpt lat="44.48578" lon="7.14909">
        <ele>1345.02</ele>
        <time>2018-07-28T09:59:18Z</time>
      </trkpt>
      <trkpt lat="44.4857" lon="7.14925">
        <ele>1345.02</ele>
        <time>2018-07-28T09:59:36Z</time>
      </trkpt>
      <trkpt lat="44.48568" lon="7.14925">
        <ele>1345.02</ele>
        <time>2018-07-28T09:59:38Z</time>
      </trkpt>
      <trkpt lat="44.48543" lon="7.14929">
        <ele>1345.02</ele>
        <time>2018-07-28T09:59:57Z</time>
      </trkpt>
      <trkpt lat="44.48532" lon="7.14941">
        <ele>1345.5</ele>
        <time>2018-07-28T10:01:41Z</time>
      </trkpt>
      <trkpt lat="44.48542" lon="7.14929">
        <ele>1345.5</ele>
        <time>2018-07-28T10:02:09Z</time>
      </trkpt>
      <trkpt lat="44.4855" lon="7.14915">
        <ele>1345.98</ele>
        <time>2018-07-28T10:02:35Z</time>
      </trkpt>
      <trkpt lat="44.48564" lon="7.14877">
        <ele>1346.46</ele>
        <time>2018-07-28T10:02:56Z</time>
      </trkpt>
      <trkpt lat="44.48569" lon="7.14849">
        <ele>1348.39</ele>
        <time>2018-07-28T10:03:20Z</time>
      </trkpt>
      <trkpt lat="44.48565" lon="7.14823">
        <ele>1347.43</ele>
        <time>2018-07-28T10:03:38Z</time>
      </trkpt>
      <trkpt lat="44.48557" lon="7.14804">
        <ele>1346.94</ele>
        <time>2018-07-28T10:03:53Z</time>
      </trkpt>
      <trkpt lat="44.48549" lon="7.14789">
        <ele>1344.54</ele>
        <time>2018-07-28T10:04:08Z</time>
      </trkpt>
      <trkpt lat="44.48542" lon="7.14765">
        <ele>1343.1</ele>
        <time>2018-07-28T10:04:26Z</time>
      </trkpt>
      <trkpt lat="44.48536" lon="7.14744">
        <ele>1342.14</ele>
        <time>2018-07-28T10:04:44Z</time>
      </trkpt>
      <trkpt lat="44.48531" lon="7.14732">
        <ele>1342.14</ele>
        <time>2018-07-28T10:04:52Z</time>
      </trkpt>
      <trkpt lat="44.48523" lon="7.14711">
        <ele>1340.7</ele>
        <time>2018-07-28T10:05:08Z</time>
      </trkpt>
      <trkpt lat="44.48521" lon="7.14692">
        <ele>1339.25</ele>
        <time>2018-07-28T10:05:24Z</time>
      </trkpt>
      <trkpt lat="44.48516" lon="7.14677">
        <ele>1338.29</ele>
        <time>2018-07-28T10:05:39Z</time>
      </trkpt>
      <trkpt lat="44.48513" lon="7.14648">
        <ele>1336.85</ele>
        <time>2018-07-28T10:05:55Z</time>
      </trkpt>
      <trkpt lat="44.48516" lon="7.1462">
        <ele>1335.89</ele>
        <time>2018-07-28T10:06:12Z</time>
      </trkpt>
      <trkpt lat="44.48524" lon="7.14612">
        <ele>1334.93</ele>
        <time>2018-07-28T10:06:25Z</time>
      </trkpt>
      <trkpt lat="44.48534" lon="7.14588">
        <ele>1333.97</ele>
        <time>2018-07-28T10:06:41Z</time>
      </trkpt>
      <trkpt lat="44.48528" lon="7.14568">
        <ele>1334.93</ele>
        <time>2018-07-28T10:06:57Z</time>
      </trkpt>
      <trkpt lat="44.48516" lon="7.14544">
        <ele>1334.93</ele>
        <time>2018-07-28T10:07:16Z</time>
      </trkpt>
      <trkpt lat="44.48508" lon="7.14526">
        <ele>1335.89</ele>
        <time>2018-07-28T10:07:34Z</time>
      </trkpt>
      <trkpt lat="44.48498" lon="7.14506">
        <ele>1336.37</ele>
        <time>2018-07-28T10:07:51Z</time>
      </trkpt>
      <trkpt lat="44.48492" lon="7.14487">
        <ele>1336.85</ele>
        <time>2018-07-28T10:08:08Z</time>
      </trkpt>
      <trkpt lat="44.48486" lon="7.14461">
        <ele>1336.85</ele>
        <time>2018-07-28T10:08:27Z</time>
      </trkpt>
      <trkpt lat="44.48487" lon="7.1444">
        <ele>1334.93</ele>
        <time>2018-07-28T10:08:44Z</time>
      </trkpt>
      <trkpt lat="44.48488" lon="7.14417">
        <ele>1333.01</ele>
        <time>2018-07-28T10:08:59Z</time>
      </trkpt>
      <trkpt lat="44.48489" lon="7.144">
        <ele>1331.08</ele>
        <time>2018-07-28T10:09:13Z</time>
      </trkpt>
      <trkpt lat="44.4849" lon="7.14381">
        <ele>1330.12</ele>
        <time>2018-07-28T10:09:28Z</time>
      </trkpt>
      <trkpt lat="44.48487" lon="7.14358">
        <ele>1329.64</ele>
        <time>2018-07-28T10:09:43Z</time>
      </trkpt>
      <trkpt lat="44.4848" lon="7.14328">
        <ele>1329.64</ele>
        <time>2018-07-28T10:10:04Z</time>
      </trkpt>
      <trkpt lat="44.4848" lon="7.14297">
        <ele>1326.76</ele>
        <time>2018-07-28T10:10:23Z</time>
      </trkpt>
      <trkpt lat="44.48482" lon="7.14279">
        <ele>1325.8</ele>
        <time>2018-07-28T10:10:38Z</time>
      </trkpt>
      <trkpt lat="44.4848" lon="7.14257">
        <ele>1325.31</ele>
        <time>2018-07-28T10:10:55Z</time>
      </trkpt>
      <trkpt lat="44.48486" lon="7.1424">
        <ele>1326.28</ele>
        <time>2018-07-28T10:11:11Z</time>
      </trkpt>
      <trkpt lat="44.48494" lon="7.14218">
        <ele>1325.31</ele>
        <time>2018-07-28T10:11:31Z</time>
      </trkpt>
      <trkpt lat="44.48502" lon="7.14219">
        <ele>1326.28</ele>
        <time>2018-07-28T10:11:52Z</time>
      </trkpt>
      <trkpt lat="44.48508" lon="7.14219">
        <ele>1326.28</ele>
        <time>2018-07-28T10:12:17Z</time>
      </trkpt>
      <trkpt lat="44.48507" lon="7.14213">
        <ele>1326.76</ele>
        <time>2018-07-28T10:12:43Z</time>
      </trkpt>
      <trkpt lat="44.4851" lon="7.14211">
        <ele>1326.28</ele>
        <time>2018-07-28T10:12:46Z</time>
      </trkpt>
      <trkpt lat="44.4852" lon="7.142">
        <ele>1325.8</ele>
        <time>2018-07-28T10:12:59Z</time>
      </trkpt>
      <trkpt lat="44.48526" lon="7.14185">
        <ele>1325.8</ele>
        <time>2018-07-28T10:13:12Z</time>
      </trkpt>
      <trkpt lat="44.48529" lon="7.1417">
        <ele>1326.28</ele>
        <time>2018-07-28T10:13:27Z</time>
      </trkpt>
      <trkpt lat="44.48532" lon="7.14152">
        <ele>1324.83</ele>
        <time>2018-07-28T10:13:42Z</time>
      </trkpt>
      <trkpt lat="44.48533" lon="7.14144">
        <ele>1324.83</ele>
        <time>2018-07-28T10:14:01Z</time>
      </trkpt>
      <trkpt lat="44.48533" lon="7.14122">
        <ele>1323.87</ele>
        <time>2018-07-28T10:14:20Z</time>
      </trkpt>
      <trkpt lat="44.48538" lon="7.14118">
        <ele>1323.39</ele>
        <time>2018-07-28T10:14:35Z</time>
      </trkpt>
      <trkpt lat="44.48552" lon="7.1414">
        <ele>1323.39</ele>
        <time>2018-07-28T10:14:50Z</time>
      </trkpt>
      <trkpt lat="44.48552" lon="7.14141">
        <ele>1322.91</ele>
        <time>2018-07-28T10:14:51Z</time>
      </trkpt>
      <trkpt lat="44.48561" lon="7.14162">
        <ele>1321.95</ele>
        <time>2018-07-28T10:15:09Z</time>
      </trkpt>
      <trkpt lat="44.48564" lon="7.14179">
        <ele>1320.51</ele>
        <time>2018-07-28T10:15:23Z</time>
      </trkpt>
      <trkpt lat="44.48565" lon="7.142">
        <ele>1320.03</ele>
        <time>2018-07-28T10:15:40Z</time>
      </trkpt>
      <trkpt lat="44.48569" lon="7.14214">
        <ele>1318.59</ele>
        <time>2018-07-28T10:15:57Z</time>
      </trkpt>
      <trkpt lat="44.48575" lon="7.1423">
        <ele>1316.66</ele>
        <time>2018-07-28T10:16:13Z</time>
      </trkpt>
      <trkpt lat="44.48582" lon="7.14245">
        <ele>1314.74</ele>
        <time>2018-07-28T10:16:28Z</time>
      </trkpt>
      <trkpt lat="44.48596" lon="7.14259">
        <ele>1314.26</ele>
        <time>2018-07-28T10:16:44Z</time>
      </trkpt>
      <trkpt lat="44.48607" lon="7.14273">
        <ele>1314.74</ele>
        <time>2018-07-28T10:17:00Z</time>
      </trkpt>
      <trkpt lat="44.4862" lon="7.14277">
        <ele>1316.66</ele>
        <time>2018-07-28T10:17:17Z</time>
      </trkpt>
      <trkpt lat="44.48631" lon="7.14283">
        <ele>1316.66</ele>
        <time>2018-07-28T10:17:33Z</time>
      </trkpt>
      <trkpt lat="44.48633" lon="7.14294">
        <ele>1319.07</ele>
        <time>2018-07-28T10:17:52Z</time>
      </trkpt>
      <trkpt lat="44.48646" lon="7.14301">
        <ele>1320.51</ele>
        <time>2018-07-28T10:18:08Z</time>
      </trkpt>
      <trkpt lat="44.48653" lon="7.14303">
        <ele>1320.51</ele>
        <time>2018-07-28T10:18:21Z</time>
      </trkpt>
      <trkpt lat="44.48664" lon="7.14306">
        <ele>1321.95</ele>
        <time>2018-07-28T10:18:35Z</time>
      </trkpt>
      <trkpt lat="44.48673" lon="7.14307">
        <ele>1323.39</ele>
        <time>2018-07-28T10:18:52Z</time>
      </trkpt>
      <trkpt lat="44.48683" lon="7.14304">
        <ele>1326.28</ele>
        <time>2018-07-28T10:19:06Z</time>
      </trkpt>
      <trkpt lat="44.48696" lon="7.14308">
        <ele>1324.35</ele>
        <time>2018-07-28T10:19:21Z</time>
      </trkpt>
      <trkpt lat="44.48703" lon="7.14311">
        <ele>1323.39</ele>
        <time>2018-07-28T10:19:27Z</time>
      </trkpt>
      <trkpt lat="44.4872" lon="7.14307">
        <ele>1323.87</ele>
        <time>2018-07-28T10:19:45Z</time>
      </trkpt>
      <trkpt lat="44.48736" lon="7.14304">
        <ele>1324.83</ele>
        <time>2018-07-28T10:20:03Z</time>
      </trkpt>
      <trkpt lat="44.48753" lon="7.14313">
        <ele>1325.8</ele>
        <time>2018-07-28T10:20:24Z</time>
      </trkpt>
      <trkpt lat="44.48767" lon="7.14316">
        <ele>1324.83</ele>
        <time>2018-07-28T10:20:37Z</time>
      </trkpt>
      <trkpt lat="44.48786" lon="7.1432">
        <ele>1323.87</ele>
        <time>2018-07-28T10:20:53Z</time>
      </trkpt>
      <trkpt lat="44.48813" lon="7.14327">
        <ele>1322.91</ele>
        <time>2018-07-28T10:21:08Z</time>
      </trkpt>
      <trkpt lat="44.48829" lon="7.1433">
        <ele>1320.99</ele>
        <time>2018-07-28T10:21:21Z</time>
      </trkpt>
      <trkpt lat="44.48841" lon="7.1433">
        <ele>1319.07</ele>
        <time>2018-07-28T10:21:34Z</time>
      </trkpt>
      <trkpt lat="44.4886" lon="7.14327">
        <ele>1317.62</ele>
        <time>2018-07-28T10:21:52Z</time>
      </trkpt>
      <trkpt lat="44.48873" lon="7.14328">
        <ele>1315.22</ele>
        <time>2018-07-28T10:22:08Z</time>
      </trkpt>
      <trkpt lat="44.48886" lon="7.14351">
        <ele>1313.3</ele>
        <time>2018-07-28T10:22:26Z</time>
      </trkpt>
      <trkpt lat="44.48888" lon="7.14363">
        <ele>1312.34</ele>
        <time>2018-07-28T10:22:33Z</time>
      </trkpt>
      <trkpt lat="44.48894" lon="7.14378">
        <ele>1312.34</ele>
        <time>2018-07-28T10:22:48Z</time>
      </trkpt>
      <trkpt lat="44.48896" lon="7.14386">
        <ele>1313.3</ele>
        <time>2018-07-28T10:23:02Z</time>
      </trkpt>
      <trkpt lat="44.48898" lon="7.14395">
        <ele>1313.78</ele>
        <time>2018-07-28T10:23:15Z</time>
      </trkpt>
      <trkpt lat="44.48899" lon="7.14397">
        <ele>1313.78</ele>
        <time>2018-07-28T10:23:16Z</time>
      </trkpt>
      <trkpt lat="44.48902" lon="7.14414">
        <ele>1315.22</ele>
        <time>2018-07-28T10:23:34Z</time>
      </trkpt>
      <trkpt lat="44.48905" lon="7.14425">
        <ele>1313.78</ele>
        <time>2018-07-28T10:23:50Z</time>
      </trkpt>
      <trkpt lat="44.48911" lon="7.14446">
        <ele>1311.86</ele>
        <time>2018-07-28T10:24:09Z</time>
      </trkpt>
      <trkpt lat="44.4892" lon="7.14457">
        <ele>1313.78</ele>
        <time>2018-07-28T10:24:27Z</time>
      </trkpt>
      <trkpt lat="44.48933" lon="7.14462">
        <ele>1314.26</ele>
        <time>2018-07-28T10:24:47Z</time>
      </trkpt>
      <trkpt lat="44.48934" lon="7.14463">
        <ele>1314.26</ele>
        <time>2018-07-28T10:24:48Z</time>
      </trkpt>
      <trkpt lat="44.48937" lon="7.1447">
        <ele>1314.26</ele>
        <time>2018-07-28T10:25:02Z</time>
      </trkpt>
      <trkpt lat="44.4894" lon="7.14469">
        <ele>1314.26</ele>
        <time>2018-07-28T10:25:28Z</time>
      </trkpt>
      <trkpt lat="44.48941" lon="7.14474">
        <ele>1314.26</ele>
        <time>2018-07-28T10:25:53Z</time>
      </trkpt>
      <trkpt lat="44.48942" lon="7.14473">
        <ele>1314.26</ele>
        <time>2018-07-28T10:26:27Z</time>
      </trkpt>
      <trkpt lat="44.48944" lon="7.14473">
        <ele>1314.26</ele>
        <time>2018-07-28T10:26:53Z</time>
      </trkpt>
      <trkpt lat="44.48949" lon="7.14482">
        <ele>1313.78</ele>
        <time>2018-07-28T10:27:06Z</time>
      </trkpt>
      <trkpt lat="44.48957" lon="7.14486">
        <ele>1313.3</ele>
        <time>2018-07-28T10:27:22Z</time>
      </trkpt>
      <trkpt lat="44.48971" lon="7.1449">
        <ele>1313.3</ele>
        <time>2018-07-28T10:27:38Z</time>
      </trkpt>
      <trkpt lat="44.48977" lon="7.14493">
        <ele>1313.3</ele>
        <time>2018-07-28T10:27:55Z</time>
      </trkpt>
      <trkpt lat="44.48979" lon="7.14496">
        <ele>1313.3</ele>
        <time>2018-07-28T10:28:25Z</time>
      </trkpt>
      <trkpt lat="44.48986" lon="7.14494">
        <ele>1313.3</ele>
        <time>2018-07-28T10:28:46Z</time>
      </trkpt>
      <trkpt lat="44.48985" lon="7.14493">
        <ele>1313.3</ele>
        <time>2018-07-28T10:29:15Z</time>
      </trkpt>
      <trkpt lat="44.48981" lon="7.14498">
        <ele>1313.78</ele>
        <time>2018-07-28T10:29:44Z</time>
      </trkpt>
      <trkpt lat="44.48972" lon="7.1449">
        <ele>1313.78</ele>
        <time>2018-07-28T10:30:09Z</time>
      </trkpt>
      <trkpt lat="44.48985" lon="7.14488">
        <ele>1313.3</ele>
        <time>2018-07-28T10:30:31Z</time>
      </trkpt>
      <trkpt lat="44.48996" lon="7.14497">
        <ele>1312.82</ele>
        <time>2018-07-28T10:30:45Z</time>
      </trkpt>
      <trkpt lat="44.49007" lon="7.14504">
        <ele>1312.82</ele>
        <time>2018-07-28T10:31:00Z</time>
      </trkpt>
      <trkpt lat="44.4902" lon="7.14513">
        <ele>1311.86</ele>
        <time>2018-07-28T10:31:17Z</time>
      </trkpt>
      <trkpt lat="44.49031" lon="7.14526">
        <ele>1311.86</ele>
        <time>2018-07-28T10:31:34Z</time>
      </trkpt>
      <trkpt lat="44.49034" lon="7.14533">
        <ele>1311.86</ele>
        <time>2018-07-28T10:31:48Z</time>
      </trkpt>
      <trkpt lat="44.49037" lon="7.14552">
        <ele>1312.82</ele>
        <time>2018-07-28T10:32:06Z</time>
      </trkpt>
      <trkpt lat="44.49043" lon="7.14568">
        <ele>1314.26</ele>
        <time>2018-07-28T10:32:22Z</time>
      </trkpt>
      <trkpt lat="44.49054" lon="7.14581">
        <ele>1313.78</ele>
        <time>2018-07-28T10:32:38Z</time>
      </trkpt>
      <trkpt lat="44.49056" lon="7.14593">
        <ele>1315.22</ele>
        <time>2018-07-28T10:32:52Z</time>
      </trkpt>
      <trkpt lat="44.49059" lon="7.14599">
        <ele>1314.74</ele>
        <time>2018-07-28T10:33:10Z</time>
      </trkpt>
      <trkpt lat="44.49066" lon="7.14613">
        <ele>1314.74</ele>
        <time>2018-07-28T10:33:24Z</time>
      </trkpt>
      <trkpt lat="44.49067" lon="7.14618">
        <ele>1314.26</ele>
        <time>2018-07-28T10:33:28Z</time>
      </trkpt>
      <trkpt lat="44.49073" lon="7.1464">
        <ele>1314.74</ele>
        <time>2018-07-28T10:33:44Z</time>
      </trkpt>
      <trkpt lat="44.49079" lon="7.14655">
        <ele>1313.3</ele>
        <time>2018-07-28T10:33:58Z</time>
      </trkpt>
      <trkpt lat="44.49083" lon="7.14667">
        <ele>1312.82</ele>
        <time>2018-07-28T10:34:13Z</time>
      </trkpt>
      <trkpt lat="44.49088" lon="7.14666">
        <ele>1312.82</ele>
        <time>2018-07-28T10:34:39Z</time>
      </trkpt>
      <trkpt lat="44.49091" lon="7.14668">
        <ele>1312.82</ele>
        <time>2018-07-28T10:35:09Z</time>
      </trkpt>
      <trkpt lat="44.4909" lon="7.14672">
        <ele>1312.82</ele>
        <time>2018-07-28T10:35:35Z</time>
      </trkpt>
      <trkpt lat="44.49085" lon="7.14669">
        <ele>1313.3</ele>
        <time>2018-07-28T10:35:56Z</time>
      </trkpt>
      <trkpt lat="44.49078" lon="7.14658">
        <ele>1312.34</ele>
        <time>2018-07-28T10:36:13Z</time>
      </trkpt>
      <trkpt lat="44.49081" lon="7.14642">
        <ele>1314.26</ele>
        <time>2018-07-28T10:36:30Z</time>
      </trkpt>
      <trkpt lat="44.49084" lon="7.14634">
        <ele>1314.26</ele>
        <time>2018-07-28T10:36:52Z</time>
      </trkpt>
      <trkpt lat="44.49084" lon="7.14637">
        <ele>1314.74</ele>
        <time>2018-07-28T10:37:04Z</time>
      </trkpt>
      <trkpt lat="44.49075" lon="7.14626">
        <ele>1314.26</ele>
        <time>2018-07-28T10:37:23Z</time>
      </trkpt>
      <trkpt lat="44.49064" lon="7.14607">
        <ele>1314.26</ele>
        <time>2018-07-28T10:37:43Z</time>
      </trkpt>
      <trkpt lat="44.49061" lon="7.14596">
        <ele>1314.26</ele>
        <time>2018-07-28T10:37:56Z</time>
      </trkpt>
      <trkpt lat="44.49052" lon="7.14579">
        <ele>1312.82</ele>
        <time>2018-07-28T10:38:13Z</time>
      </trkpt>
      <trkpt lat="44.49048" lon="7.14569">
        <ele>1313.3</ele>
        <time>2018-07-28T10:38:27Z</time>
      </trkpt>
      <trkpt lat="44.49043" lon="7.14549">
        <ele>1311.38</ele>
        <time>2018-07-28T10:38:45Z</time>
      </trkpt>
      <trkpt lat="44.49035" lon="7.14525">
        <ele>1310.41</ele>
        <time>2018-07-28T10:39:03Z</time>
      </trkpt>
      <trkpt lat="44.49027" lon="7.14514">
        <ele>1309.93</ele>
        <time>2018-07-28T10:39:18Z</time>
      </trkpt>
      <trkpt lat="44.49014" lon="7.14505">
        <ele>1310.9</ele>
        <time>2018-07-28T10:39:33Z</time>
      </trkpt>
      <trkpt lat="44.49002" lon="7.145">
        <ele>1311.38</ele>
        <time>2018-07-28T10:39:48Z</time>
      </trkpt>
      <trkpt lat="44.4899" lon="7.14495">
        <ele>1311.38</ele>
        <time>2018-07-28T10:40:02Z</time>
      </trkpt>
      <trkpt lat="44.48979" lon="7.14488">
        <ele>1313.3</ele>
        <time>2018-07-28T10:40:18Z</time>
      </trkpt>
      <trkpt lat="44.48968" lon="7.14482">
        <ele>1312.82</ele>
        <time>2018-07-28T10:40:34Z</time>
      </trkpt>
      <trkpt lat="44.48973" lon="7.1448">
        <ele>1314.26</ele>
        <time>2018-07-28T10:40:49Z</time>
      </trkpt>
      <trkpt lat="44.48975" lon="7.1448">
        <ele>1314.74</ele>
        <time>2018-07-28T10:41:07Z</time>
      </trkpt>
      <trkpt lat="44.48973" lon="7.1448">
        <ele>1314.74</ele>
        <time>2018-07-28T10:41:26Z</time>
      </trkpt>
      <trkpt lat="44.48975" lon="7.14485">
        <ele>1314.26</ele>
        <time>2018-07-28T10:41:41Z</time>
      </trkpt>
      <trkpt lat="44.4898" lon="7.14488">
        <ele>1314.26</ele>
        <time>2018-07-28T10:42:05Z</time>
      </trkpt>
      <trkpt lat="44.48977" lon="7.14496">
        <ele>1314.26</ele>
        <time>2018-07-28T10:42:39Z</time>
      </trkpt>
      <trkpt lat="44.48975" lon="7.14498">
        <ele>1314.74</ele>
        <time>2018-07-28T10:43:16Z</time>
      </trkpt>
      <trkpt lat="44.4897" lon="7.14497">
        <ele>1315.22</ele>
        <time>2018-07-28T10:43:42Z</time>
      </trkpt>
      <trkpt lat="44.48968" lon="7.14493">
        <ele>1315.22</ele>
        <time>2018-07-28T10:44:15Z</time>
      </trkpt>
      <trkpt lat="44.48969" lon="7.14495">
        <ele>1315.22</ele>
        <time>2018-07-28T10:44:44Z</time>
      </trkpt>
      <trkpt lat="44.48969" lon="7.1449">
        <ele>1315.22</ele>
        <time>2018-07-28T10:45:22Z</time>
      </trkpt>
      <trkpt lat="44.48969" lon="7.14493">
        <ele>1315.22</ele>
        <time>2018-07-28T10:46:01Z</time>
      </trkpt>
      <trkpt lat="44.48971" lon="7.14497">
        <ele>1315.7</ele>
        <time>2018-07-28T10:46:31Z</time>
      </trkpt>
      <trkpt lat="44.48972" lon="7.14498">
        <ele>1315.7</ele>
        <time>2018-07-28T10:47:02Z</time>
      </trkpt>
      <trkpt lat="44.4897" lon="7.14497">
        <ele>1316.18</ele>
        <time>2018-07-28T10:47:26Z</time>
      </trkpt>
      <trkpt lat="44.48971" lon="7.14502">
        <ele>1316.18</ele>
        <time>2018-07-28T10:47:59Z</time>
      </trkpt>
      <trkpt lat="44.4897" lon="7.145">
        <ele>1316.66</ele>
        <time>2018-07-28T10:48:36Z</time>
      </trkpt>
      <trkpt lat="44.4897" lon="7.14494">
        <ele>1316.66</ele>
        <time>2018-07-28T10:49:12Z</time>
      </trkpt>
      <trkpt lat="44.48968" lon="7.14495">
        <ele>1317.14</ele>
        <time>2018-07-28T10:49:43Z</time>
      </trkpt>
      <trkpt lat="44.48969" lon="7.14494">
        <ele>1317.62</ele>
        <time>2018-07-28T10:50:09Z</time>
      </trkpt>
      <trkpt lat="44.48975" lon="7.14497">
        <ele>1317.62</ele>
        <time>2018-07-28T10:50:43Z</time>
      </trkpt>
      <trkpt lat="44.48974" lon="7.14497">
        <ele>1318.1</ele>
        <time>2018-07-28T10:51:09Z</time>
      </trkpt>
      <trkpt lat="44.48976" lon="7.14504">
        <ele>1318.59</ele>
        <time>2018-07-28T10:51:47Z</time>
      </trkpt>
      <trkpt lat="44.48974" lon="7.14503">
        <ele>1319.07</ele>
        <time>2018-07-28T10:52:21Z</time>
      </trkpt>
      <trkpt lat="44.48974" lon="7.14498">
        <ele>1319.07</ele>
        <time>2018-07-28T10:53:00Z</time>
      </trkpt>
      <trkpt lat="44.48973" lon="7.14502">
        <ele>1319.07</ele>
        <time>2018-07-28T10:53:39Z</time>
      </trkpt>
      <trkpt lat="44.48973" lon="7.145">
        <ele>1319.55</ele>
        <time>2018-07-28T10:54:19Z</time>
      </trkpt>
      <trkpt lat="44.48974" lon="7.14503">
        <ele>1319.55</ele>
        <time>2018-07-28T10:54:56Z</time>
      </trkpt>
      <trkpt lat="44.48973" lon="7.14502">
        <ele>1320.03</ele>
        <time>2018-07-28T10:55:33Z</time>
      </trkpt>
      <trkpt lat="44.48972" lon="7.14498">
        <ele>1319.55</ele>
        <time>2018-07-28T10:56:07Z</time>
      </trkpt>
      <trkpt lat="44.48972" lon="7.14496">
        <ele>1319.55</ele>
        <time>2018-07-28T10:56:46Z</time>
      </trkpt>
      <trkpt lat="44.48973" lon="7.14498">
        <ele>1320.03</ele>
        <time>2018-07-28T10:57:16Z</time>
      </trkpt>
      <trkpt lat="44.48972" lon="7.14498">
        <ele>1320.03</ele>
        <time>2018-07-28T10:57:54Z</time>
      </trkpt>
      <trkpt lat="44.48974" lon="7.14497">
        <ele>1320.03</ele>
        <time>2018-07-28T10:58:24Z</time>
      </trkpt>
      <trkpt lat="44.48973" lon="7.14493">
        <ele>1320.03</ele>
        <time>2018-07-28T10:59:01Z</time>
      </trkpt>
      <trkpt lat="44.48971" lon="7.14499">
        <ele>1320.03</ele>
        <time>2018-07-28T10:59:37Z</time>
      </trkpt>
      <trkpt lat="44.48972" lon="7.145">
        <ele>1320.51</ele>
        <time>2018-07-28T11:00:14Z</time>
      </trkpt>
      <trkpt lat="44.48975" lon="7.14501">
        <ele>1320.51</ele>
        <time>2018-07-28T11:00:51Z</time>
      </trkpt>
      <trkpt lat="44.48977" lon="7.14496">
        <ele>1320.51</ele>
        <time>2018-07-28T11:01:27Z</time>
      </trkpt>
      <trkpt lat="44.48976" lon="7.14493">
        <ele>1320.99</ele>
        <time>2018-07-28T11:02:04Z</time>
      </trkpt>
      <trkpt lat="44.48976" lon="7.14494">
        <ele>1320.99</ele>
        <time>2018-07-28T11:02:30Z</time>
      </trkpt>
      <trkpt lat="44.48973" lon="7.14497">
        <ele>1320.99</ele>
        <time>2018-07-28T11:03:03Z</time>
      </trkpt>
      <trkpt lat="44.48973" lon="7.14493">
        <ele>1320.51</ele>
        <time>2018-07-28T11:03:33Z</time>
      </trkpt>
      <trkpt lat="44.48974" lon="7.14493">
        <ele>1320.99</ele>
        <time>2018-07-28T11:04:11Z</time>
      </trkpt>
      <trkpt lat="44.48976" lon="7.14497">
        <ele>1320.99</ele>
        <time>2018-07-28T11:04:48Z</time>
      </trkpt>
      <trkpt lat="44.48978" lon="7.14499">
        <ele>1320.99</ele>
        <time>2018-07-28T11:05:24Z</time>
      </trkpt>
      <trkpt lat="44.48977" lon="7.14496">
        <ele>1320.99</ele>
        <time>2018-07-28T11:05:58Z</time>
      </trkpt>
      <trkpt lat="44.48977" lon="7.14495">
        <ele>1320.99</ele>
        <time>2018-07-28T11:06:27Z</time>
      </trkpt>
      <trkpt lat="44.48975" lon="7.14493">
        <ele>1320.51</ele>
        <time>2018-07-28T11:07:04Z</time>
      </trkpt>
      <trkpt lat="44.48975" lon="7.14492">
        <ele>1320.51</ele>
        <time>2018-07-28T11:07:36Z</time>
      </trkpt>
      <trkpt lat="44.48977" lon="7.1449">
        <ele>1320.51</ele>
        <time>2018-07-28T11:08:12Z</time>
      </trkpt>
      <trkpt lat="44.48977" lon="7.14487">
        <ele>1320.51</ele>
        <time>2018-07-28T11:08:47Z</time>
      </trkpt>
      <trkpt lat="44.48977" lon="7.14487">
        <ele>1320.51</ele>
        <time>2018-07-28T11:09:22Z</time>
      </trkpt>
      <trkpt lat="44.48978" lon="7.14484">
        <ele>1320.03</ele>
        <time>2018-07-28T11:09:55Z</time>
      </trkpt>
      <trkpt lat="44.48977" lon="7.14484">
        <ele>1320.51</ele>
        <time>2018-07-28T11:10:20Z</time>
      </trkpt>
      <trkpt lat="44.48975" lon="7.14485">
        <ele>1320.03</ele>
        <time>2018-07-28T11:10:50Z</time>
      </trkpt>
      <trkpt lat="44.48975" lon="7.14488">
        <ele>1320.03</ele>
        <time>2018-07-28T11:11:21Z</time>
      </trkpt>
      <trkpt lat="44.48974" lon="7.14489">
        <ele>1320.03</ele>
        <time>2018-07-28T11:11:50Z</time>
      </trkpt>
      <trkpt lat="44.48971" lon="7.14484">
        <ele>1320.51</ele>
        <time>2018-07-28T11:12:22Z</time>
      </trkpt>
      <trkpt lat="44.48968" lon="7.14493">
        <ele>1320.51</ele>
        <time>2018-07-28T11:12:58Z</time>
      </trkpt>
      <trkpt lat="44.48971" lon="7.14493">
        <ele>1320.51</ele>
        <time>2018-07-28T11:13:35Z</time>
      </trkpt>
      <trkpt lat="44.48971" lon="7.14486">
        <ele>1320.51</ele>
        <time>2018-07-28T11:14:04Z</time>
      </trkpt>
      <trkpt lat="44.48973" lon="7.14483">
        <ele>1320.51</ele>
        <time>2018-07-28T11:14:35Z</time>
      </trkpt>
      <trkpt lat="44.48977" lon="7.14487">
        <ele>1320.03</ele>
        <time>2018-07-28T11:14:57Z</time>
      </trkpt>
      <trkpt lat="44.48976" lon="7.14491">
        <ele>1319.55</ele>
        <time>2018-07-28T11:15:29Z</time>
      </trkpt>
      <trkpt lat="44.48977" lon="7.14486">
        <ele>1320.03</ele>
        <time>2018-07-28T11:16:02Z</time>
      </trkpt>
      <trkpt lat="44.48977" lon="7.14486">
        <ele>1319.55</ele>
        <time>2018-07-28T11:16:30Z</time>
      </trkpt>
      <trkpt lat="44.48977" lon="7.14488">
        <ele>1319.55</ele>
        <time>2018-07-28T11:16:46Z</time>
      </trkpt>
      <trkpt lat="44.48973" lon="7.1449">
        <ele>1320.51</ele>
        <time>2018-07-28T11:16:59Z</time>
      </trkpt>
      <trkpt lat="44.4897" lon="7.14492">
        <ele>1320.03</ele>
        <time>2018-07-28T11:17:13Z</time>
      </trkpt>
      <trkpt lat="44.48973" lon="7.14492">
        <ele>1320.51</ele>
        <time>2018-07-28T11:17:24Z</time>
      </trkpt>
      <trkpt lat="44.48969" lon="7.14492">
        <ele>1320.03</ele>
        <time>2018-07-28T11:17:35Z</time>
      </trkpt>
      <trkpt lat="44.48964" lon="7.14489">
        <ele>1318.59</ele>
        <time>2018-07-28T11:17:42Z</time>
      </trkpt>
      <trkpt lat="44.48967" lon="7.14489">
        <ele>1317.14</ele>
        <time>2018-07-28T11:17:53Z</time>
      </trkpt>
      <trkpt lat="44.48979" lon="7.14496">
        <ele>1316.66</ele>
        <time>2018-07-28T11:18:10Z</time>
      </trkpt>
      <trkpt lat="44.48978" lon="7.14493">
        <ele>1316.18</ele>
        <time>2018-07-28T11:18:38Z</time>
      </trkpt>
      <trkpt lat="44.48983" lon="7.14498">
        <ele>1316.18</ele>
        <time>2018-07-28T11:19:14Z</time>
      </trkpt>
      <trkpt lat="44.48981" lon="7.14494">
        <ele>1316.18</ele>
        <time>2018-07-28T11:19:55Z</time>
      </trkpt>
      <trkpt lat="44.48971" lon="7.14489">
        <ele>1316.66</ele>
        <time>2018-07-28T11:20:09Z</time>
      </trkpt>
      <trkpt lat="44.48965" lon="7.14481">
        <ele>1317.62</ele>
        <time>2018-07-28T11:20:22Z</time>
      </trkpt>
      <trkpt lat="44.48972" lon="7.14483">
        <ele>1319.07</ele>
        <time>2018-07-28T11:20:40Z</time>
      </trkpt>
      <trkpt lat="44.48971" lon="7.14489">
        <ele>1319.07</ele>
        <time>2018-07-28T11:21:08Z</time>
      </trkpt>
      <trkpt lat="44.48971" lon="7.14487">
        <ele>1317.62</ele>
        <time>2018-07-28T11:21:28Z</time>
      </trkpt>
      <trkpt lat="44.48972" lon="7.14488">
        <ele>1317.62</ele>
        <time>2018-07-28T11:21:56Z</time>
      </trkpt>
      <trkpt lat="44.48971" lon="7.14487">
        <ele>1317.62</ele>
        <time>2018-07-28T11:22:24Z</time>
      </trkpt>
      <trkpt lat="44.4897" lon="7.1448">
        <ele>1317.62</ele>
        <time>2018-07-28T11:22:47Z</time>
      </trkpt>
      <trkpt lat="44.4897" lon="7.14481">
        <ele>1317.62</ele>
        <time>2018-07-28T11:23:15Z</time>
      </trkpt>
      <trkpt lat="44.4897" lon="7.14485">
        <ele>1317.62</ele>
        <time>2018-07-28T11:23:49Z</time>
      </trkpt>
      <trkpt lat="44.48969" lon="7.14485">
        <ele>1317.62</ele>
        <time>2018-07-28T11:24:12Z</time>
      </trkpt>
      <trkpt lat="44.48969" lon="7.14482">
        <ele>1318.1</ele>
        <time>2018-07-28T11:24:33Z</time>
      </trkpt>
      <trkpt lat="44.48969" lon="7.14485">
        <ele>1318.1</ele>
        <time>2018-07-28T11:24:50Z</time>
      </trkpt>
      <trkpt lat="44.48974" lon="7.14486">
        <ele>1318.59</ele>
        <time>2018-07-28T11:25:03Z</time>
      </trkpt>
      <trkpt lat="44.48978" lon="7.14492">
        <ele>1318.59</ele>
        <time>2018-07-28T11:25:20Z</time>
      </trkpt>
      <trkpt lat="44.48975" lon="7.14476">
        <ele>1318.1</ele>
        <time>2018-07-28T11:25:50Z</time>
      </trkpt>
      <trkpt lat="44.48982" lon="7.14486">
        <ele>1319.07</ele>
        <time>2018-07-28T11:26:11Z</time>
      </trkpt>
      <trkpt lat="44.4897" lon="7.14486">
        <ele>1318.59</ele>
        <time>2018-07-28T11:26:33Z</time>
      </trkpt>
      <trkpt lat="44.48968" lon="7.14486">
        <ele>1318.59</ele>
        <time>2018-07-28T11:26:50Z</time>
      </trkpt>
      <trkpt lat="44.48967" lon="7.14487">
        <ele>1318.1</ele>
        <time>2018-07-28T11:27:05Z</time>
      </trkpt>
      <trkpt lat="44.48963" lon="7.14487">
        <ele>1316.18</ele>
        <time>2018-07-28T11:27:22Z</time>
      </trkpt>
      <trkpt lat="44.48974" lon="7.14484">
        <ele>1315.7</ele>
        <time>2018-07-28T11:27:43Z</time>
      </trkpt>
      <trkpt lat="44.48976" lon="7.14486">
        <ele>1315.7</ele>
        <time>2018-07-28T11:27:45Z</time>
      </trkpt>
      <trkpt lat="44.48988" lon="7.14493">
        <ele>1317.14</ele>
        <time>2018-07-28T11:28:05Z</time>
      </trkpt>
      <trkpt lat="44.49001" lon="7.14485">
        <ele>1320.03</ele>
        <time>2018-07-28T11:28:29Z</time>
      </trkpt>
      <trkpt lat="44.49003" lon="7.14478">
        <ele>1320.51</ele>
        <time>2018-07-28T11:28:49Z</time>
      </trkpt>
      <trkpt lat="44.4901" lon="7.14473">
        <ele>1322.43</ele>
        <time>2018-07-28T11:29:13Z</time>
      </trkpt>
      <trkpt lat="44.49014" lon="7.14479">
        <ele>1323.87</ele>
        <time>2018-07-28T11:29:27Z</time>
      </trkpt>
      <trkpt lat="44.49015" lon="7.14471">
        <ele>1326.76</ele>
        <time>2018-07-28T11:29:43Z</time>
      </trkpt>
      <trkpt lat="44.49007" lon="7.14463">
        <ele>1328.2</ele>
        <time>2018-07-28T11:29:58Z</time>
      </trkpt>
      <trkpt lat="44.48998" lon="7.14458">
        <ele>1330.12</ele>
        <time>2018-07-28T11:30:15Z</time>
      </trkpt>
      <trkpt lat="44.48991" lon="7.14452">
        <ele>1331.56</ele>
        <time>2018-07-28T11:30:29Z</time>
      </trkpt>
      <trkpt lat="44.48986" lon="7.14447">
        <ele>1333.01</ele>
        <time>2018-07-28T11:30:46Z</time>
      </trkpt>
      <trkpt lat="44.48982" lon="7.14442">
        <ele>1334.45</ele>
        <time>2018-07-28T11:31:00Z</time>
      </trkpt>
      <trkpt lat="44.48977" lon="7.14437">
        <ele>1336.37</ele>
        <time>2018-07-28T11:31:17Z</time>
      </trkpt>
      <trkpt lat="44.48971" lon="7.14433">
        <ele>1338.29</ele>
        <time>2018-07-28T11:31:30Z</time>
      </trkpt>
      <trkpt lat="44.48965" lon="7.14424">
        <ele>1340.22</ele>
        <time>2018-07-28T11:31:44Z</time>
      </trkpt>
      <trkpt lat="44.48958" lon="7.14419">
        <ele>1342.14</ele>
        <time>2018-07-28T11:31:58Z</time>
      </trkpt>
      <trkpt lat="44.48961" lon="7.14411">
        <ele>1343.58</ele>
        <time>2018-07-28T11:32:11Z</time>
      </trkpt>
      <trkpt lat="44.48968" lon="7.1441">
        <ele>1345.5</ele>
        <time>2018-07-28T11:32:26Z</time>
      </trkpt>
      <trkpt lat="44.48964" lon="7.14398">
        <ele>1347.43</ele>
        <time>2018-07-28T11:32:40Z</time>
      </trkpt>
      <trkpt lat="44.48963" lon="7.14385">
        <ele>1349.35</ele>
        <time>2018-07-28T11:32:56Z</time>
      </trkpt>
      <trkpt lat="44.48961" lon="7.14372">
        <ele>1351.27</ele>
        <time>2018-07-28T11:33:12Z</time>
      </trkpt>
      <trkpt lat="44.4896" lon="7.14368">
        <ele>1350.79</ele>
        <time>2018-07-28T11:33:23Z</time>
      </trkpt>
      <trkpt lat="44.48961" lon="7.14362">
        <ele>1350.31</ele>
        <time>2018-07-28T11:33:36Z</time>
      </trkpt>
      <trkpt lat="44.48959" lon="7.1436">
        <ele>1350.31</ele>
        <time>2018-07-28T11:34:07Z</time>
      </trkpt>
      <trkpt lat="44.48961" lon="7.1436">
        <ele>1350.79</ele>
        <time>2018-07-28T11:34:26Z</time>
      </trkpt>
      <trkpt lat="44.48963" lon="7.14363">
        <ele>1351.27</ele>
        <time>2018-07-28T11:34:43Z</time>
      </trkpt>
      <trkpt lat="44.48964" lon="7.14361">
        <ele>1351.27</ele>
        <time>2018-07-28T11:35:15Z</time>
      </trkpt>
      <trkpt lat="44.48962" lon="7.1436">
        <ele>1351.75</ele>
        <time>2018-07-28T11:35:41Z</time>
      </trkpt>
      <trkpt lat="44.48959" lon="7.14355">
        <ele>1351.75</ele>
        <time>2018-07-28T11:35:56Z</time>
      </trkpt>
      <trkpt lat="44.48901" lon="7.14415">
        <ele>1354.15</ele>
        <time>2018-07-28T11:37:54Z</time>
      </trkpt>
      <trkpt lat="44.48938" lon="7.14328">
        <ele>1356.56</ele>
        <time>2018-07-28T11:38:11Z</time>
      </trkpt>
      <trkpt lat="44.4894" lon="7.14296">
        <ele>1359.44</ele>
        <time>2018-07-28T11:38:32Z</time>
      </trkpt>
      <trkpt lat="44.48935" lon="7.14285">
        <ele>1362.81</ele>
        <time>2018-07-28T11:38:55Z</time>
      </trkpt>
      <trkpt lat="44.48929" lon="7.14268">
        <ele>1365.69</ele>
        <time>2018-07-28T11:39:14Z</time>
      </trkpt>
      <trkpt lat="44.48933" lon="7.14245">
        <ele>1368.57</ele>
        <time>2018-07-28T11:39:35Z</time>
      </trkpt>
      <trkpt lat="44.48937" lon="7.1423">
        <ele>1371.46</ele>
        <time>2018-07-28T11:39:58Z</time>
      </trkpt>
      <trkpt lat="44.48918" lon="7.14219">
        <ele>1374.34</ele>
        <time>2018-07-28T11:40:19Z</time>
      </trkpt>
      <trkpt lat="44.48903" lon="7.14214">
        <ele>1377.23</ele>
        <time>2018-07-28T11:40:43Z</time>
      </trkpt>
      <trkpt lat="44.48894" lon="7.14194">
        <ele>1379.15</ele>
        <time>2018-07-28T11:41:03Z</time>
      </trkpt>
      <trkpt lat="44.48885" lon="7.14177">
        <ele>1381.55</ele>
        <time>2018-07-28T11:41:23Z</time>
      </trkpt>
      <trkpt lat="44.48875" lon="7.1417">
        <ele>1382.99</ele>
        <time>2018-07-28T11:41:41Z</time>
      </trkpt>
      <trkpt lat="44.48863" lon="7.14162">
        <ele>1384.92</ele>
        <time>2018-07-28T11:42:03Z</time>
      </trkpt>
      <trkpt lat="44.48858" lon="7.14157">
        <ele>1388.28</ele>
        <time>2018-07-28T11:42:22Z</time>
      </trkpt>
      <trkpt lat="44.48852" lon="7.14148">
        <ele>1391.17</ele>
        <time>2018-07-28T11:42:42Z</time>
      </trkpt>
      <trkpt lat="44.48842" lon="7.14147">
        <ele>1394.05</ele>
        <time>2018-07-28T11:43:01Z</time>
      </trkpt>
      <trkpt lat="44.48833" lon="7.14151">
        <ele>1396.93</ele>
        <time>2018-07-28T11:43:19Z</time>
      </trkpt>
      <trkpt lat="44.48821" lon="7.14155">
        <ele>1398.86</ele>
        <time>2018-07-28T11:43:38Z</time>
      </trkpt>
      <trkpt lat="44.4881" lon="7.14154">
        <ele>1401.26</ele>
        <time>2018-07-28T11:43:56Z</time>
      </trkpt>
      <trkpt lat="44.488" lon="7.14155">
        <ele>1402.7</ele>
        <time>2018-07-28T11:44:09Z</time>
      </trkpt>
      <trkpt lat="44.48792" lon="7.14152">
        <ele>1405.1</ele>
        <time>2018-07-28T11:44:27Z</time>
      </trkpt>
      <trkpt lat="44.48786" lon="7.1415">
        <ele>1407.51</ele>
        <time>2018-07-28T11:44:42Z</time>
      </trkpt>
      <trkpt lat="44.48774" lon="7.14144">
        <ele>1409.91</ele>
        <time>2018-07-28T11:44:59Z</time>
      </trkpt>
      <trkpt lat="44.48763" lon="7.14144">
        <ele>1412.31</ele>
        <time>2018-07-28T11:45:16Z</time>
      </trkpt>
      <trkpt lat="44.48756" lon="7.14145">
        <ele>1414.24</ele>
        <time>2018-07-28T11:45:33Z</time>
      </trkpt>
      <trkpt lat="44.48745" lon="7.14145">
        <ele>1417.12</ele>
        <time>2018-07-28T11:45:50Z</time>
      </trkpt>
      <trkpt lat="44.48736" lon="7.14147">
        <ele>1418.56</ele>
        <time>2018-07-28T11:46:05Z</time>
      </trkpt>
      <trkpt lat="44.48728" lon="7.14143">
        <ele>1421.45</ele>
        <time>2018-07-28T11:46:21Z</time>
      </trkpt>
      <trkpt lat="44.48723" lon="7.14135">
        <ele>1423.85</ele>
        <time>2018-07-28T11:46:35Z</time>
      </trkpt>
      <trkpt lat="44.48731" lon="7.14124">
        <ele>1425.77</ele>
        <time>2018-07-28T11:46:50Z</time>
      </trkpt>
      <trkpt lat="44.4874" lon="7.14113">
        <ele>1428.66</ele>
        <time>2018-07-28T11:47:10Z</time>
      </trkpt>
      <trkpt lat="44.48739" lon="7.14104">
        <ele>1430.58</ele>
        <time>2018-07-28T11:47:25Z</time>
      </trkpt>
      <trkpt lat="44.48731" lon="7.14092">
        <ele>1432.02</ele>
        <time>2018-07-28T11:47:45Z</time>
      </trkpt>
      <trkpt lat="44.48727" lon="7.14081">
        <ele>1433.94</ele>
        <time>2018-07-28T11:47:59Z</time>
      </trkpt>
      <trkpt lat="44.48721" lon="7.14071">
        <ele>1435.87</ele>
        <time>2018-07-28T11:48:13Z</time>
      </trkpt>
      <trkpt lat="44.48713" lon="7.14061">
        <ele>1437.31</ele>
        <time>2018-07-28T11:48:29Z</time>
      </trkpt>
      <trkpt lat="44.48708" lon="7.14055">
        <ele>1439.71</ele>
        <time>2018-07-28T11:48:44Z</time>
      </trkpt>
      <trkpt lat="44.48699" lon="7.14048">
        <ele>1441.63</ele>
        <time>2018-07-28T11:49:00Z</time>
      </trkpt>
      <trkpt lat="44.48691" lon="7.14039">
        <ele>1443.08</ele>
        <time>2018-07-28T11:49:15Z</time>
      </trkpt>
      <trkpt lat="44.48686" lon="7.14031">
        <ele>1445</ele>
        <time>2018-07-28T11:49:29Z</time>
      </trkpt>
      <trkpt lat="44.48684" lon="7.1402">
        <ele>1447.4</ele>
        <time>2018-07-28T11:49:44Z</time>
      </trkpt>
      <trkpt lat="44.48687" lon="7.14009">
        <ele>1450.29</ele>
        <time>2018-07-28T11:50:03Z</time>
      </trkpt>
      <trkpt lat="44.48687" lon="7.14004">
        <ele>1451.25</ele>
        <time>2018-07-28T11:50:26Z</time>
      </trkpt>
      <trkpt lat="44.48693" lon="7.14">
        <ele>1452.21</ele>
        <time>2018-07-28T11:50:48Z</time>
      </trkpt>
      <trkpt lat="44.48691" lon="7.13987">
        <ele>1454.61</ele>
        <time>2018-07-28T11:51:06Z</time>
      </trkpt>
      <trkpt lat="44.4869" lon="7.13985">
        <ele>1455.57</ele>
        <time>2018-07-28T11:51:21Z</time>
      </trkpt>
      <trkpt lat="44.48692" lon="7.13977">
        <ele>1456.53</ele>
        <time>2018-07-28T11:51:35Z</time>
      </trkpt>
      <trkpt lat="44.48695" lon="7.13968">
        <ele>1458.46</ele>
        <time>2018-07-28T11:51:49Z</time>
      </trkpt>
      <trkpt lat="44.48695" lon="7.13969">
        <ele>1458.94</ele>
        <time>2018-07-28T11:52:19Z</time>
      </trkpt>
      <trkpt lat="44.48695" lon="7.13971">
        <ele>1458.94</ele>
        <time>2018-07-28T11:52:51Z</time>
      </trkpt>
      <trkpt lat="44.48693" lon="7.13966">
        <ele>1458.94</ele>
        <time>2018-07-28T11:53:11Z</time>
      </trkpt>
      <trkpt lat="44.48692" lon="7.13965">
        <ele>1458.94</ele>
        <time>2018-07-28T11:53:35Z</time>
      </trkpt>
      <trkpt lat="44.48695" lon="7.13967">
        <ele>1459.42</ele>
        <time>2018-07-28T11:53:57Z</time>
      </trkpt>
      <trkpt lat="44.48697" lon="7.13971">
        <ele>1459.9</ele>
        <time>2018-07-28T11:54:18Z</time>
      </trkpt>
      <trkpt lat="44.48699" lon="7.13963">
        <ele>1459.9</ele>
        <time>2018-07-28T11:54:32Z</time>
      </trkpt>
      <trkpt lat="44.48697" lon="7.13961">
        <ele>1460.38</ele>
        <time>2018-07-28T11:55:03Z</time>
      </trkpt>
      <trkpt lat="44.48699" lon="7.13951">
        <ele>1461.34</ele>
        <time>2018-07-28T11:55:23Z</time>
      </trkpt>
      <trkpt lat="44.48701" lon="7.13937">
        <ele>1462.78</ele>
        <time>2018-07-28T11:55:38Z</time>
      </trkpt>
      <trkpt lat="44.48702" lon="7.13922">
        <ele>1463.74</ele>
        <time>2018-07-28T11:55:53Z</time>
      </trkpt>
      <trkpt lat="44.48701" lon="7.13918">
        <ele>1464.71</ele>
        <time>2018-07-28T11:56:08Z</time>
      </trkpt>
      <trkpt lat="44.48701" lon="7.1391">
        <ele>1466.63</ele>
        <time>2018-07-28T11:56:23Z</time>
      </trkpt>
      <trkpt lat="44.48705" lon="7.13907">
        <ele>1467.11</ele>
        <time>2018-07-28T11:56:39Z</time>
      </trkpt>
      <trkpt lat="44.48704" lon="7.13897">
        <ele>1469.03</ele>
        <time>2018-07-28T11:56:53Z</time>
      </trkpt>
      <trkpt lat="44.48702" lon="7.13883">
        <ele>1472.4</ele>
        <time>2018-07-28T11:57:09Z</time>
      </trkpt>
      <trkpt lat="44.48701" lon="7.13874">
        <ele>1474.32</ele>
        <time>2018-07-28T11:57:23Z</time>
      </trkpt>
      <trkpt lat="44.48697" lon="7.13862">
        <ele>1476.72</ele>
        <time>2018-07-28T11:57:40Z</time>
      </trkpt>
      <trkpt lat="44.48693" lon="7.13845">
        <ele>1478.65</ele>
        <time>2018-07-28T11:57:57Z</time>
      </trkpt>
      <trkpt lat="44.487" lon="7.13837">
        <ele>1482.49</ele>
        <time>2018-07-28T11:58:15Z</time>
      </trkpt>
      <trkpt lat="44.48708" lon="7.13832">
        <ele>1483.93</ele>
        <time>2018-07-28T11:58:31Z</time>
      </trkpt>
      <trkpt lat="44.4871" lon="7.1383">
        <ele>1485.85</ele>
        <time>2018-07-28T11:58:50Z</time>
      </trkpt>
      <trkpt lat="44.48707" lon="7.13829">
        <ele>1485.85</ele>
        <time>2018-07-28T11:59:15Z</time>
      </trkpt>
      <trkpt lat="44.48707" lon="7.13827">
        <ele>1486.34</ele>
        <time>2018-07-28T11:59:41Z</time>
      </trkpt>
      <trkpt lat="44.48711" lon="7.13824">
        <ele>1489.22</ele>
        <time>2018-07-28T11:59:55Z</time>
      </trkpt>
      <trkpt lat="44.48719" lon="7.13814">
        <ele>1492.58</ele>
        <time>2018-07-28T12:00:13Z</time>
      </trkpt>
      <trkpt lat="44.48726" lon="7.13826">
        <ele>1495.47</ele>
        <time>2018-07-28T12:00:33Z</time>
      </trkpt>
      <trkpt lat="44.48732" lon="7.13833">
        <ele>1496.91</ele>
        <time>2018-07-28T12:00:48Z</time>
      </trkpt>
      <trkpt lat="44.48738" lon="7.13824">
        <ele>1499.31</ele>
        <time>2018-07-28T12:01:11Z</time>
      </trkpt>
      <trkpt lat="44.48748" lon="7.13821">
        <ele>1502.2</ele>
        <time>2018-07-28T12:01:29Z</time>
      </trkpt>
      <trkpt lat="44.48758" lon="7.13832">
        <ele>1504.12</ele>
        <time>2018-07-28T12:01:47Z</time>
      </trkpt>
      <trkpt lat="44.48767" lon="7.13838">
        <ele>1507</ele>
        <time>2018-07-28T12:02:06Z</time>
      </trkpt>
      <trkpt lat="44.48772" lon="7.13843">
        <ele>1508.45</ele>
        <time>2018-07-28T12:02:21Z</time>
      </trkpt>
      <trkpt lat="44.48782" lon="7.13852">
        <ele>1510.85</ele>
        <time>2018-07-28T12:02:39Z</time>
      </trkpt>
      <trkpt lat="44.48787" lon="7.13852">
        <ele>1512.77</ele>
        <time>2018-07-28T12:02:54Z</time>
      </trkpt>
      <trkpt lat="44.48792" lon="7.13855">
        <ele>1514.21</ele>
        <time>2018-07-28T12:03:12Z</time>
      </trkpt>
      <trkpt lat="44.48793" lon="7.13855">
        <ele>1514.21</ele>
        <time>2018-07-28T12:03:36Z</time>
      </trkpt>
      <trkpt lat="44.488" lon="7.13855">
        <ele>1515.66</ele>
        <time>2018-07-28T12:03:50Z</time>
      </trkpt>
      <trkpt lat="44.4881" lon="7.13861">
        <ele>1518.54</ele>
        <time>2018-07-28T12:04:07Z</time>
      </trkpt>
      <trkpt lat="44.48821" lon="7.13864">
        <ele>1520.94</ele>
        <time>2018-07-28T12:04:24Z</time>
      </trkpt>
      <trkpt lat="44.48832" lon="7.13863">
        <ele>1523.35</ele>
        <time>2018-07-28T12:04:41Z</time>
      </trkpt>
      <trkpt lat="44.48842" lon="7.1386">
        <ele>1526.71</ele>
        <time>2018-07-28T12:04:58Z</time>
      </trkpt>
      <trkpt lat="44.48853" lon="7.13864">
        <ele>1528.63</ele>
        <time>2018-07-28T12:05:15Z</time>
      </trkpt>
      <trkpt lat="44.48862" lon="7.13854">
        <ele>1532</ele>
        <time>2018-07-28T12:05:32Z</time>
      </trkpt>
      <trkpt lat="44.48856" lon="7.1385">
        <ele>1532.48</ele>
        <time>2018-07-28T12:05:48Z</time>
      </trkpt>
      <trkpt lat="44.48848" lon="7.13842">
        <ele>1534.4</ele>
        <time>2018-07-28T12:06:04Z</time>
      </trkpt>
      <trkpt lat="44.48844" lon="7.13841">
        <ele>1533.92</ele>
        <time>2018-07-28T12:06:20Z</time>
      </trkpt>
      <trkpt lat="44.48837" lon="7.13833">
        <ele>1533.92</ele>
        <time>2018-07-28T12:06:35Z</time>
      </trkpt>
      <trkpt lat="44.48831" lon="7.13827">
        <ele>1532.96</ele>
        <time>2018-07-28T12:06:44Z</time>
      </trkpt>
      <trkpt lat="44.48821" lon="7.13819">
        <ele>1531.52</ele>
        <time>2018-07-28T12:06:58Z</time>
      </trkpt>
      <trkpt lat="44.4881" lon="7.1381">
        <ele>1530.08</ele>
        <time>2018-07-28T12:07:13Z</time>
      </trkpt>
      <trkpt lat="44.48801" lon="7.13802">
        <ele>1528.15</ele>
        <time>2018-07-28T12:07:28Z</time>
      </trkpt>
      <trkpt lat="44.48794" lon="7.13795">
        <ele>1526.71</ele>
        <time>2018-07-28T12:07:39Z</time>
      </trkpt>
      <trkpt lat="44.48788" lon="7.13787">
        <ele>1525.75</ele>
        <time>2018-07-28T12:07:52Z</time>
      </trkpt>
      <trkpt lat="44.48786" lon="7.13787">
        <ele>1524.31</ele>
        <time>2018-07-28T12:08:08Z</time>
      </trkpt>
      <trkpt lat="44.48783" lon="7.13789">
        <ele>1524.79</ele>
        <time>2018-07-28T12:08:39Z</time>
      </trkpt>
      <trkpt lat="44.48785" lon="7.1379">
        <ele>1524.79</ele>
        <time>2018-07-28T12:09:03Z</time>
      </trkpt>
      <trkpt lat="44.48784" lon="7.13791">
        <ele>1523.83</ele>
        <time>2018-07-28T12:09:14Z</time>
      </trkpt>
      <trkpt lat="44.48784" lon="7.13782">
        <ele>1523.35</ele>
        <time>2018-07-28T12:09:46Z</time>
      </trkpt>
      <trkpt lat="44.48785" lon="7.13787">
        <ele>1524.31</ele>
        <time>2018-07-28T12:10:15Z</time>
      </trkpt>
      <trkpt lat="44.48786" lon="7.13789">
        <ele>1524.79</ele>
        <time>2018-07-28T12:10:25Z</time>
      </trkpt>
      <trkpt lat="44.48792" lon="7.13793">
        <ele>1524.79</ele>
        <time>2018-07-28T12:10:52Z</time>
      </trkpt>
      <trkpt lat="44.48788" lon="7.13791">
        <ele>1524.79</ele>
        <time>2018-07-28T12:11:26Z</time>
      </trkpt>
      <trkpt lat="44.48785" lon="7.13787">
        <ele>1524.79</ele>
        <time>2018-07-28T12:12:08Z</time>
      </trkpt>
      <trkpt lat="44.48789" lon="7.13784">
        <ele>1524.79</ele>
        <time>2018-07-28T12:12:28Z</time>
      </trkpt>
      <trkpt lat="44.48786" lon="7.1379">
        <ele>1524.79</ele>
        <time>2018-07-28T12:12:50Z</time>
      </trkpt>
      <trkpt lat="44.48782" lon="7.13794">
        <ele>1524.31</ele>
        <time>2018-07-28T12:13:18Z</time>
      </trkpt>
      <trkpt lat="44.48779" lon="7.13782">
        <ele>1523.35</ele>
        <time>2018-07-28T12:13:33Z</time>
      </trkpt>
      <trkpt lat="44.48768" lon="7.1377">
        <ele>1521.42</ele>
        <time>2018-07-28T12:13:47Z</time>
      </trkpt>
      <trkpt lat="44.48757" lon="7.13759">
        <ele>1519.98</ele>
        <time>2018-07-28T12:14:04Z</time>
      </trkpt>
      <trkpt lat="44.48744" lon="7.13748">
        <ele>1517.58</ele>
        <time>2018-07-28T12:14:20Z</time>
      </trkpt>
      <trkpt lat="44.48733" lon="7.13738">
        <ele>1515.66</ele>
        <time>2018-07-28T12:14:35Z</time>
      </trkpt>
      <trkpt lat="44.48719" lon="7.13727">
        <ele>1513.25</ele>
        <time>2018-07-28T12:14:52Z</time>
      </trkpt>
      <trkpt lat="44.48708" lon="7.13719">
        <ele>1511.81</ele>
        <time>2018-07-28T12:15:06Z</time>
      </trkpt>
      <trkpt lat="44.48695" lon="7.13712">
        <ele>1509.89</ele>
        <time>2018-07-28T12:15:21Z</time>
      </trkpt>
      <trkpt lat="44.48683" lon="7.13702">
        <ele>1509.41</ele>
        <time>2018-07-28T12:15:36Z</time>
      </trkpt>
      <trkpt lat="44.48671" lon="7.13696">
        <ele>1508.93</ele>
        <time>2018-07-28T12:15:50Z</time>
      </trkpt>
      <trkpt lat="44.48657" lon="7.13692">
        <ele>1508.45</ele>
        <time>2018-07-28T12:16:05Z</time>
      </trkpt>
      <trkpt lat="44.48644" lon="7.13683">
        <ele>1507.48</ele>
        <time>2018-07-28T12:16:20Z</time>
      </trkpt>
      <trkpt lat="44.48629" lon="7.13678">
        <ele>1507</ele>
        <time>2018-07-28T12:16:35Z</time>
      </trkpt>
      <trkpt lat="44.48613" lon="7.13672">
        <ele>1506.52</ele>
        <time>2018-07-28T12:16:52Z</time>
      </trkpt>
      <trkpt lat="44.486" lon="7.13668">
        <ele>1506.04</ele>
        <time>2018-07-28T12:17:07Z</time>
      </trkpt>
      <trkpt lat="44.48585" lon="7.13662">
        <ele>1505.08</ele>
        <time>2018-07-28T12:17:22Z</time>
      </trkpt>
      <trkpt lat="44.48573" lon="7.13661">
        <ele>1504.6</ele>
        <time>2018-07-28T12:17:35Z</time>
      </trkpt>
      <trkpt lat="44.48556" lon="7.13655">
        <ele>1503.64</ele>
        <time>2018-07-28T12:17:52Z</time>
      </trkpt>
      <trkpt lat="44.4854" lon="7.13651">
        <ele>1502.68</ele>
        <time>2018-07-28T12:18:08Z</time>
      </trkpt>
      <trkpt lat="44.48525" lon="7.13653">
        <ele>1502.2</ele>
        <time>2018-07-28T12:18:24Z</time>
      </trkpt>
      <trkpt lat="44.48514" lon="7.13656">
        <ele>1502.2</ele>
        <time>2018-07-28T12:18:40Z</time>
      </trkpt>
      <trkpt lat="44.4851" lon="7.13657">
        <ele>1502.2</ele>
        <time>2018-07-28T12:18:45Z</time>
      </trkpt>
      <trkpt lat="44.48494" lon="7.13665">
        <ele>1502.2</ele>
        <time>2018-07-28T12:19:03Z</time>
      </trkpt>
      <trkpt lat="44.48482" lon="7.13673">
        <ele>1502.68</ele>
        <time>2018-07-28T12:19:18Z</time>
      </trkpt>
      <trkpt lat="44.48464" lon="7.13683">
        <ele>1501.72</ele>
        <time>2018-07-28T12:19:36Z</time>
      </trkpt>
      <trkpt lat="44.48461" lon="7.13697">
        <ele>1499.79</ele>
        <time>2018-07-28T12:19:53Z</time>
      </trkpt>
      <trkpt lat="44.48474" lon="7.13688">
        <ele>1497.39</ele>
        <time>2018-07-28T12:20:09Z</time>
      </trkpt>
      <trkpt lat="44.48488" lon="7.13686">
        <ele>1494.99</ele>
        <time>2018-07-28T12:20:25Z</time>
      </trkpt>
      <trkpt lat="44.48499" lon="7.13682">
        <ele>1493.55</ele>
        <time>2018-07-28T12:20:36Z</time>
      </trkpt>
      <trkpt lat="44.48518" lon="7.13679">
        <ele>1491.14</ele>
        <time>2018-07-28T12:20:54Z</time>
      </trkpt>
      <trkpt lat="44.48533" lon="7.13678">
        <ele>1488.26</ele>
        <time>2018-07-28T12:21:10Z</time>
      </trkpt>
      <trkpt lat="44.48544" lon="7.13688">
        <ele>1485.85</ele>
        <time>2018-07-28T12:21:26Z</time>
      </trkpt>
      <trkpt lat="44.48554" lon="7.13696">
        <ele>1483.93</ele>
        <time>2018-07-28T12:21:40Z</time>
      </trkpt>
      <trkpt lat="44.48562" lon="7.13698">
        <ele>1482.97</ele>
        <time>2018-07-28T12:21:47Z</time>
      </trkpt>
      <trkpt lat="44.48576" lon="7.13707">
        <ele>1480.57</ele>
        <time>2018-07-28T12:22:04Z</time>
      </trkpt>
      <trkpt lat="44.48589" lon="7.13719">
        <ele>1478.16</ele>
        <time>2018-07-28T12:22:18Z</time>
      </trkpt>
      <trkpt lat="44.48603" lon="7.13729">
        <ele>1476.24</ele>
        <time>2018-07-28T12:22:33Z</time>
      </trkpt>
      <trkpt lat="44.48614" lon="7.13744">
        <ele>1472.88</ele>
        <time>2018-07-28T12:22:48Z</time>
      </trkpt>
      <trkpt lat="44.4863" lon="7.13758">
        <ele>1469.99</ele>
        <time>2018-07-28T12:23:05Z</time>
      </trkpt>
      <trkpt lat="44.48638" lon="7.13766">
        <ele>1467.59</ele>
        <time>2018-07-28T12:23:19Z</time>
      </trkpt>
      <trkpt lat="44.48634" lon="7.13772">
        <ele>1466.15</ele>
        <time>2018-07-28T12:23:27Z</time>
      </trkpt>
      <trkpt lat="44.48618" lon="7.13769">
        <ele>1464.71</ele>
        <time>2018-07-28T12:23:41Z</time>
      </trkpt>
      <trkpt lat="44.486" lon="7.13765">
        <ele>1463.26</ele>
        <time>2018-07-28T12:24:00Z</time>
      </trkpt>
      <trkpt lat="44.48584" lon="7.13759">
        <ele>1462.3</ele>
        <time>2018-07-28T12:24:15Z</time>
      </trkpt>
      <trkpt lat="44.48568" lon="7.13752">
        <ele>1461.34</ele>
        <time>2018-07-28T12:24:31Z</time>
      </trkpt>
      <trkpt lat="44.48554" lon="7.13751">
        <ele>1459.9</ele>
        <time>2018-07-28T12:24:45Z</time>
      </trkpt>
      <trkpt lat="44.48536" lon="7.13749">
        <ele>1457.5</ele>
        <time>2018-07-28T12:25:03Z</time>
      </trkpt>
      <trkpt lat="44.4852" lon="7.13749">
        <ele>1456.53</ele>
        <time>2018-07-28T12:25:19Z</time>
      </trkpt>
      <trkpt lat="44.48514" lon="7.1375">
        <ele>1455.57</ele>
        <time>2018-07-28T12:25:26Z</time>
      </trkpt>
      <trkpt lat="44.48499" lon="7.13765">
        <ele>1453.65</ele>
        <time>2018-07-28T12:25:43Z</time>
      </trkpt>
      <trkpt lat="44.48485" lon="7.13776">
        <ele>1451.73</ele>
        <time>2018-07-28T12:25:58Z</time>
      </trkpt>
      <trkpt lat="44.48466" lon="7.13781">
        <ele>1449.32</ele>
        <time>2018-07-28T12:26:16Z</time>
      </trkpt>
      <trkpt lat="44.48449" lon="7.13782">
        <ele>1447.4</ele>
        <time>2018-07-28T12:26:34Z</time>
      </trkpt>
      <trkpt lat="44.48444" lon="7.13783">
        <ele>1446.44</ele>
        <time>2018-07-28T12:26:46Z</time>
      </trkpt>
      <trkpt lat="44.48428" lon="7.13785">
        <ele>1445</ele>
        <time>2018-07-28T12:27:02Z</time>
      </trkpt>
      <trkpt lat="44.48422" lon="7.13789">
        <ele>1444.04</ele>
        <time>2018-07-28T12:27:08Z</time>
      </trkpt>
      <trkpt lat="44.48408" lon="7.13795">
        <ele>1443.08</ele>
        <time>2018-07-28T12:27:21Z</time>
      </trkpt>
      <trkpt lat="44.48403" lon="7.13798">
        <ele>1443.08</ele>
        <time>2018-07-28T12:27:25Z</time>
      </trkpt>
      <trkpt lat="44.4839" lon="7.13802">
        <ele>1442.11</ele>
        <time>2018-07-28T12:27:38Z</time>
      </trkpt>
      <trkpt lat="44.48373" lon="7.13806">
        <ele>1441.63</ele>
        <time>2018-07-28T12:27:52Z</time>
      </trkpt>
      <trkpt lat="44.48372" lon="7.13805">
        <ele>1441.63</ele>
        <time>2018-07-28T12:27:54Z</time>
      </trkpt>
      <trkpt lat="44.48358" lon="7.13804">
        <ele>1440.67</ele>
        <time>2018-07-28T12:28:09Z</time>
      </trkpt>
      <trkpt lat="44.48343" lon="7.13803">
        <ele>1438.75</ele>
        <time>2018-07-28T12:28:23Z</time>
      </trkpt>
      <trkpt lat="44.4834" lon="7.13804">
        <ele>1437.79</ele>
        <time>2018-07-28T12:28:27Z</time>
      </trkpt>
      <trkpt lat="44.48323" lon="7.13814">
        <ele>1436.35</ele>
        <time>2018-07-28T12:28:43Z</time>
      </trkpt>
      <trkpt lat="44.48315" lon="7.13834">
        <ele>1436.35</ele>
        <time>2018-07-28T12:28:58Z</time>
      </trkpt>
      <trkpt lat="44.48311" lon="7.13843">
        <ele>1435.87</ele>
        <time>2018-07-28T12:29:04Z</time>
      </trkpt>
      <trkpt lat="44.4831" lon="7.13865">
        <ele>1434.42</ele>
        <time>2018-07-28T12:29:18Z</time>
      </trkpt>
      <trkpt lat="44.48318" lon="7.13886">
        <ele>1432.98</ele>
        <time>2018-07-28T12:29:35Z</time>
      </trkpt>
      <trkpt lat="44.48319" lon="7.13892">
        <ele>1433.46</ele>
        <time>2018-07-28T12:29:40Z</time>
      </trkpt>
      <trkpt lat="44.48322" lon="7.13921">
        <ele>1432.5</ele>
        <time>2018-07-28T12:29:57Z</time>
      </trkpt>
      <trkpt lat="44.48328" lon="7.13943">
        <ele>1432.5</ele>
        <time>2018-07-28T12:30:20Z</time>
      </trkpt>
      <trkpt lat="44.48328" lon="7.13964">
        <ele>1431.54</ele>
        <time>2018-07-28T12:30:35Z</time>
      </trkpt>
      <trkpt lat="44.48331" lon="7.13996">
        <ele>1430.58</ele>
        <time>2018-07-28T12:31:01Z</time>
      </trkpt>
      <trkpt lat="44.48331" lon="7.14018">
        <ele>1430.58</ele>
        <time>2018-07-28T12:31:17Z</time>
      </trkpt>
      <trkpt lat="44.48339" lon="7.14053">
        <ele>1430.1</ele>
        <time>2018-07-28T12:31:43Z</time>
      </trkpt>
      <trkpt lat="44.48343" lon="7.14086">
        <ele>1428.66</ele>
        <time>2018-07-28T12:32:04Z</time>
      </trkpt>
      <trkpt lat="44.48344" lon="7.14093">
        <ele>1428.66</ele>
        <time>2018-07-28T12:32:09Z</time>
      </trkpt>
      <trkpt lat="44.48339" lon="7.14098">
        <ele>1428.18</ele>
        <time>2018-07-28T12:32:16Z</time>
      </trkpt>
      <trkpt lat="44.48329" lon="7.14116">
        <ele>1426.73</ele>
        <time>2018-07-28T12:32:32Z</time>
      </trkpt>
      <trkpt lat="44.48319" lon="7.14129">
        <ele>1425.29</ele>
        <time>2018-07-28T12:32:45Z</time>
      </trkpt>
      <trkpt lat="44.48307" lon="7.14144">
        <ele>1424.33</ele>
        <time>2018-07-28T12:33:00Z</time>
      </trkpt>
      <trkpt lat="44.48292" lon="7.14158">
        <ele>1423.85</ele>
        <time>2018-07-28T12:33:16Z</time>
      </trkpt>
      <trkpt lat="44.48278" lon="7.14175">
        <ele>1423.37</ele>
        <time>2018-07-28T12:33:33Z</time>
      </trkpt>
      <trkpt lat="44.48267" lon="7.14199">
        <ele>1422.89</ele>
        <time>2018-07-28T12:33:52Z</time>
      </trkpt>
      <trkpt lat="44.48267" lon="7.14222">
        <ele>1423.37</ele>
        <time>2018-07-28T12:34:09Z</time>
      </trkpt>
      <trkpt lat="44.48272" lon="7.14246">
        <ele>1423.37</ele>
        <time>2018-07-28T12:34:25Z</time>
      </trkpt>
      <trkpt lat="44.48274" lon="7.14269">
        <ele>1424.33</ele>
        <time>2018-07-28T12:34:42Z</time>
      </trkpt>
      <trkpt lat="44.48275" lon="7.14273">
        <ele>1423.85</ele>
        <time>2018-07-28T12:34:44Z</time>
      </trkpt>
      <trkpt lat="44.48279" lon="7.14284">
        <ele>1424.33</ele>
        <time>2018-07-28T12:34:51Z</time>
      </trkpt>
      <trkpt lat="44.48281" lon="7.14292">
        <ele>1424.33</ele>
        <time>2018-07-28T12:34:57Z</time>
      </trkpt>
      <trkpt lat="44.48283" lon="7.14315">
        <ele>1424.81</ele>
        <time>2018-07-28T12:35:13Z</time>
      </trkpt>
      <trkpt lat="44.48287" lon="7.14337">
        <ele>1425.29</ele>
        <time>2018-07-28T12:35:27Z</time>
      </trkpt>
      <trkpt lat="44.48293" lon="7.14356">
        <ele>1426.25</ele>
        <time>2018-07-28T12:35:40Z</time>
      </trkpt>
      <trkpt lat="44.483" lon="7.14379">
        <ele>1427.21</ele>
        <time>2018-07-28T12:35:55Z</time>
      </trkpt>
      <trkpt lat="44.48306" lon="7.14392">
        <ele>1428.18</ele>
        <time>2018-07-28T12:36:08Z</time>
      </trkpt>
      <trkpt lat="44.48307" lon="7.14393">
        <ele>1428.66</ele>
        <time>2018-07-28T12:36:10Z</time>
      </trkpt>
      <trkpt lat="44.48312" lon="7.14411">
        <ele>1429.62</ele>
        <time>2018-07-28T12:36:25Z</time>
      </trkpt>
      <trkpt lat="44.48314" lon="7.14416">
        <ele>1429.62</ele>
        <time>2018-07-28T12:36:29Z</time>
      </trkpt>
      <trkpt lat="44.48322" lon="7.14436">
        <ele>1430.1</ele>
        <time>2018-07-28T12:36:45Z</time>
      </trkpt>
      <trkpt lat="44.48325" lon="7.1444">
        <ele>1429.62</ele>
        <time>2018-07-28T12:36:50Z</time>
      </trkpt>
      <trkpt lat="44.48336" lon="7.14462">
        <ele>1429.62</ele>
        <time>2018-07-28T12:37:06Z</time>
      </trkpt>
      <trkpt lat="44.48344" lon="7.14475">
        <ele>1429.14</ele>
        <time>2018-07-28T12:37:21Z</time>
      </trkpt>
      <trkpt lat="44.48353" lon="7.14493">
        <ele>1428.66</ele>
        <time>2018-07-28T12:37:37Z</time>
      </trkpt>
      <trkpt lat="44.48355" lon="7.14496">
        <ele>1428.66</ele>
        <time>2018-07-28T12:37:40Z</time>
      </trkpt>
      <trkpt lat="44.48365" lon="7.14523">
        <ele>1428.66</ele>
        <time>2018-07-28T12:37:56Z</time>
      </trkpt>
      <trkpt lat="44.48373" lon="7.14544">
        <ele>1427.7</ele>
        <time>2018-07-28T12:38:10Z</time>
      </trkpt>
      <trkpt lat="44.48377" lon="7.14551">
        <ele>1427.7</ele>
        <time>2018-07-28T12:38:15Z</time>
      </trkpt>
      <trkpt lat="44.48377" lon="7.14578">
        <ele>1427.21</ele>
        <time>2018-07-28T12:38:29Z</time>
      </trkpt>
      <trkpt lat="44.48379" lon="7.14584">
        <ele>1427.21</ele>
        <time>2018-07-28T12:38:35Z</time>
      </trkpt>
      <trkpt lat="44.48383" lon="7.14612">
        <ele>1426.25</ele>
        <time>2018-07-28T12:38:54Z</time>
      </trkpt>
      <trkpt lat="44.48389" lon="7.14632">
        <ele>1425.29</ele>
        <time>2018-07-28T12:39:07Z</time>
      </trkpt>
      <trkpt lat="44.48392" lon="7.14661">
        <ele>1423.37</ele>
        <time>2018-07-28T12:39:24Z</time>
      </trkpt>
      <trkpt lat="44.48394" lon="7.1468">
        <ele>1422.41</ele>
        <time>2018-07-28T12:39:35Z</time>
      </trkpt>
      <trkpt lat="44.48398" lon="7.14706">
        <ele>1421.93</ele>
        <time>2018-07-28T12:39:51Z</time>
      </trkpt>
      <trkpt lat="44.48404" lon="7.14726">
        <ele>1421.45</ele>
        <time>2018-07-28T12:40:04Z</time>
      </trkpt>
      <trkpt lat="44.48409" lon="7.14742">
        <ele>1420.97</ele>
        <time>2018-07-28T12:40:18Z</time>
      </trkpt>
      <trkpt lat="44.48412" lon="7.14748">
        <ele>1420.97</ele>
        <time>2018-07-28T12:40:23Z</time>
      </trkpt>
      <trkpt lat="44.48423" lon="7.14773">
        <ele>1420</ele>
        <time>2018-07-28T12:40:42Z</time>
      </trkpt>
      <trkpt lat="44.48436" lon="7.14793">
        <ele>1419.52</ele>
        <time>2018-07-28T12:40:57Z</time>
      </trkpt>
      <trkpt lat="44.48443" lon="7.14811">
        <ele>1419.52</ele>
        <time>2018-07-28T12:41:11Z</time>
      </trkpt>
      <trkpt lat="44.4845" lon="7.1483">
        <ele>1419.04</ele>
        <time>2018-07-28T12:41:24Z</time>
      </trkpt>
      <trkpt lat="44.4845" lon="7.14831">
        <ele>1419.52</ele>
        <time>2018-07-28T12:41:25Z</time>
      </trkpt>
      <trkpt lat="44.48453" lon="7.1484">
        <ele>1419.52</ele>
        <time>2018-07-28T12:41:31Z</time>
      </trkpt>
      <trkpt lat="44.48461" lon="7.1486">
        <ele>1419.04</ele>
        <time>2018-07-28T12:41:47Z</time>
      </trkpt>
      <trkpt lat="44.48455" lon="7.14883">
        <ele>1418.56</ele>
        <time>2018-07-28T12:42:02Z</time>
      </trkpt>
      <trkpt lat="44.4845" lon="7.14908">
        <ele>1418.56</ele>
        <time>2018-07-28T12:42:21Z</time>
      </trkpt>
      <trkpt lat="44.48451" lon="7.14932">
        <ele>1420</ele>
        <time>2018-07-28T12:42:38Z</time>
      </trkpt>
      <trkpt lat="44.48449" lon="7.14947">
        <ele>1420.97</ele>
        <time>2018-07-28T12:42:49Z</time>
      </trkpt>
      <trkpt lat="44.48447" lon="7.14975">
        <ele>1420.49</ele>
        <time>2018-07-28T12:43:03Z</time>
      </trkpt>
      <trkpt lat="44.4845" lon="7.14995">
        <ele>1420</ele>
        <time>2018-07-28T12:43:15Z</time>
      </trkpt>
      <trkpt lat="44.48455" lon="7.15021">
        <ele>1419.52</ele>
        <time>2018-07-28T12:43:33Z</time>
      </trkpt>
      <trkpt lat="44.4846" lon="7.1504">
        <ele>1419.04</ele>
        <time>2018-07-28T12:43:46Z</time>
      </trkpt>
      <trkpt lat="44.48462" lon="7.15071">
        <ele>1418.08</ele>
        <time>2018-07-28T12:44:04Z</time>
      </trkpt>
      <trkpt lat="44.48463" lon="7.15093">
        <ele>1418.08</ele>
        <time>2018-07-28T12:44:18Z</time>
      </trkpt>
      <trkpt lat="44.48467" lon="7.15119">
        <ele>1416.64</ele>
        <time>2018-07-28T12:44:34Z</time>
      </trkpt>
      <trkpt lat="44.48468" lon="7.15146">
        <ele>1416.64</ele>
        <time>2018-07-28T12:44:49Z</time>
      </trkpt>
      <trkpt lat="44.48472" lon="7.15147">
        <ele>1417.6</ele>
        <time>2018-07-28T12:45:08Z</time>
      </trkpt>
      <trkpt lat="44.48475" lon="7.15178">
        <ele>1419.04</ele>
        <time>2018-07-28T12:45:27Z</time>
      </trkpt>
      <trkpt lat="44.48473" lon="7.15196">
        <ele>1420.49</ele>
        <time>2018-07-28T12:45:41Z</time>
      </trkpt>
      <trkpt lat="44.48478" lon="7.15223">
        <ele>1423.37</ele>
        <time>2018-07-28T12:46:00Z</time>
      </trkpt>
      <trkpt lat="44.48486" lon="7.1525">
        <ele>1425.77</ele>
        <time>2018-07-28T12:46:19Z</time>
      </trkpt>
      <trkpt lat="44.48481" lon="7.1527">
        <ele>1426.73</ele>
        <time>2018-07-28T12:46:34Z</time>
      </trkpt>
      <trkpt lat="44.48479" lon="7.15275">
        <ele>1427.21</ele>
        <time>2018-07-28T12:46:39Z</time>
      </trkpt>
      <trkpt lat="44.48483" lon="7.15305">
        <ele>1427.7</ele>
        <time>2018-07-28T12:46:58Z</time>
      </trkpt>
      <trkpt lat="44.4849" lon="7.15326">
        <ele>1427.21</ele>
        <time>2018-07-28T12:47:14Z</time>
      </trkpt>
      <trkpt lat="44.48497" lon="7.15344">
        <ele>1426.25</ele>
        <time>2018-07-28T12:47:28Z</time>
      </trkpt>
      <trkpt lat="44.48505" lon="7.15358">
        <ele>1425.29</ele>
        <time>2018-07-28T12:47:41Z</time>
      </trkpt>
      <trkpt lat="44.48506" lon="7.15365">
        <ele>1425.29</ele>
        <time>2018-07-28T12:47:54Z</time>
      </trkpt>
      <trkpt lat="44.48502" lon="7.15366">
        <ele>1424.81</ele>
        <time>2018-07-28T12:48:06Z</time>
      </trkpt>
      <trkpt lat="44.48504" lon="7.15361">
        <ele>1424.81</ele>
        <time>2018-07-28T12:48:44Z</time>
      </trkpt>
      <trkpt lat="44.48505" lon="7.15364">
        <ele>1424.33</ele>
        <time>2018-07-28T12:49:20Z</time>
      </trkpt>
      <trkpt lat="44.48501" lon="7.15358">
        <ele>1424.33</ele>
        <time>2018-07-28T12:49:54Z</time>
      </trkpt>
      <trkpt lat="44.485" lon="7.15362">
        <ele>1424.33</ele>
        <time>2018-07-28T12:50:22Z</time>
      </trkpt>
      <trkpt lat="44.485" lon="7.15359">
        <ele>1423.85</ele>
        <time>2018-07-28T12:50:54Z</time>
      </trkpt>
      <trkpt lat="44.48506" lon="7.15366">
        <ele>1424.33</ele>
        <time>2018-07-28T12:51:19Z</time>
      </trkpt>
      <trkpt lat="44.48511" lon="7.15368">
        <ele>1423.85</ele>
        <time>2018-07-28T12:51:33Z</time>
      </trkpt>
      <trkpt lat="44.48514" lon="7.15369">
        <ele>1423.37</ele>
        <time>2018-07-28T12:51:50Z</time>
      </trkpt>
      <trkpt lat="44.48512" lon="7.15372">
        <ele>1423.85</ele>
        <time>2018-07-28T12:52:06Z</time>
      </trkpt>
      <trkpt lat="44.48515" lon="7.15375">
        <ele>1422.41</ele>
        <time>2018-07-28T12:52:17Z</time>
      </trkpt>
      <trkpt lat="44.48516" lon="7.15382">
        <ele>1421.93</ele>
        <time>2018-07-28T12:52:31Z</time>
      </trkpt>
      <trkpt lat="44.48515" lon="7.15381">
        <ele>1421.93</ele>
        <time>2018-07-28T12:52:46Z</time>
      </trkpt>
      <trkpt lat="44.48517" lon="7.15379">
        <ele>1421.45</ele>
        <time>2018-07-28T12:53:09Z</time>
      </trkpt>
      <trkpt lat="44.48522" lon="7.15381">
        <ele>1421.45</ele>
        <time>2018-07-28T12:53:37Z</time>
      </trkpt>
      <trkpt lat="44.48521" lon="7.15377">
        <ele>1420.97</ele>
        <time>2018-07-28T12:53:55Z</time>
      </trkpt>
      <trkpt lat="44.48517" lon="7.15373">
        <ele>1420.97</ele>
        <time>2018-07-28T12:54:21Z</time>
      </trkpt>
      <trkpt lat="44.48513" lon="7.15366">
        <ele>1421.45</ele>
        <time>2018-07-28T12:54:39Z</time>
      </trkpt>
      <trkpt lat="44.48508" lon="7.1537">
        <ele>1422.41</ele>
        <time>2018-07-28T12:54:52Z</time>
      </trkpt>
      <trkpt lat="44.48503" lon="7.15365">
        <ele>1422.89</ele>
        <time>2018-07-28T12:55:06Z</time>
      </trkpt>
      <trkpt lat="44.48501" lon="7.1536">
        <ele>1422.41</ele>
        <time>2018-07-28T12:55:25Z</time>
      </trkpt>
      <trkpt lat="44.485" lon="7.15358">
        <ele>1422.89</ele>
        <time>2018-07-28T12:55:44Z</time>
      </trkpt>
      <trkpt lat="44.48502" lon="7.15363">
        <ele>1422.89</ele>
        <time>2018-07-28T12:56:14Z</time>
      </trkpt>
      <trkpt lat="44.48502" lon="7.15358">
        <ele>1422.89</ele>
        <time>2018-07-28T12:56:33Z</time>
      </trkpt>
      <trkpt lat="44.48503" lon="7.15357">
        <ele>1423.37</ele>
        <time>2018-07-28T12:56:48Z</time>
      </trkpt>
      <trkpt lat="44.48506" lon="7.15361">
        <ele>1423.37</ele>
        <time>2018-07-28T12:57:17Z</time>
      </trkpt>
      <trkpt lat="44.48509" lon="7.15364">
        <ele>1423.37</ele>
        <time>2018-07-28T12:57:39Z</time>
      </trkpt>
      <trkpt lat="44.48513" lon="7.15363">
        <ele>1422.89</ele>
        <time>2018-07-28T12:58:09Z</time>
      </trkpt>
      <trkpt lat="44.48508" lon="7.15366">
        <ele>1423.37</ele>
        <time>2018-07-28T12:58:43Z</time>
      </trkpt>
      <trkpt lat="44.48503" lon="7.15363">
        <ele>1423.37</ele>
        <time>2018-07-28T12:59:17Z</time>
      </trkpt>
      <trkpt lat="44.48502" lon="7.15363">
        <ele>1423.37</ele>
        <time>2018-07-28T12:59:48Z</time>
      </trkpt>
      <trkpt lat="44.48509" lon="7.15367">
        <ele>1423.85</ele>
        <time>2018-07-28T13:00:21Z</time>
      </trkpt>
      <trkpt lat="44.48504" lon="7.1535">
        <ele>1424.33</ele>
        <time>2018-07-28T13:00:47Z</time>
      </trkpt>
      <trkpt lat="44.48503" lon="7.15354">
        <ele>1424.81</ele>
        <time>2018-07-28T13:01:05Z</time>
      </trkpt>
      <trkpt lat="44.48506" lon="7.1536">
        <ele>1425.29</ele>
        <time>2018-07-28T13:01:30Z</time>
      </trkpt>
      <trkpt lat="44.4851" lon="7.15362">
        <ele>1425.29</ele>
        <time>2018-07-28T13:02:01Z</time>
      </trkpt>
      <trkpt lat="44.48505" lon="7.15361">
        <ele>1425.77</ele>
        <time>2018-07-28T13:02:28Z</time>
      </trkpt>
      <trkpt lat="44.48506" lon="7.15363">
        <ele>1425.29</ele>
        <time>2018-07-28T13:02:54Z</time>
      </trkpt>
      <trkpt lat="44.48509" lon="7.15369">
        <ele>1423.37</ele>
        <time>2018-07-28T13:03:09Z</time>
      </trkpt>
      <trkpt lat="44.48516" lon="7.15382">
        <ele>1422.41</ele>
        <time>2018-07-28T13:03:25Z</time>
      </trkpt>
      <trkpt lat="44.48521" lon="7.15391">
        <ele>1422.89</ele>
        <time>2018-07-28T13:03:42Z</time>
      </trkpt>
      <trkpt lat="44.48534" lon="7.15404">
        <ele>1420</ele>
        <time>2018-07-28T13:03:59Z</time>
      </trkpt>
      <trkpt lat="44.48546" lon="7.15417">
        <ele>1419.52</ele>
        <time>2018-07-28T13:04:15Z</time>
      </trkpt>
      <trkpt lat="44.48547" lon="7.15426">
        <ele>1418.56</ele>
        <time>2018-07-28T13:04:30Z</time>
      </trkpt>
      <trkpt lat="44.48543" lon="7.15434">
        <ele>1415.68</ele>
        <time>2018-07-28T13:04:46Z</time>
      </trkpt>
      <trkpt lat="44.48531" lon="7.15441">
        <ele>1412.31</ele>
        <time>2018-07-28T13:05:02Z</time>
      </trkpt>
      <trkpt lat="44.48523" lon="7.15434">
        <ele>1409.43</ele>
        <time>2018-07-28T13:05:15Z</time>
      </trkpt>
      <trkpt lat="44.4851" lon="7.15434">
        <ele>1406.07</ele>
        <time>2018-07-28T13:05:28Z</time>
      </trkpt>
      <trkpt lat="44.48508" lon="7.15434">
        <ele>1405.58</ele>
        <time>2018-07-28T13:05:30Z</time>
      </trkpt>
      <trkpt lat="44.48498" lon="7.15435">
        <ele>1402.22</ele>
        <time>2018-07-28T13:05:46Z</time>
      </trkpt>
      <trkpt lat="44.48486" lon="7.15434">
        <ele>1399.82</ele>
        <time>2018-07-28T13:06:02Z</time>
      </trkpt>
      <trkpt lat="44.48472" lon="7.15426">
        <ele>1396.45</ele>
        <time>2018-07-28T13:06:20Z</time>
      </trkpt>
      <trkpt lat="44.48457" lon="7.15422">
        <ele>1393.57</ele>
        <time>2018-07-28T13:06:36Z</time>
      </trkpt>
      <trkpt lat="44.48436" lon="7.15429">
        <ele>1390.2</ele>
        <time>2018-07-28T13:06:57Z</time>
      </trkpt>
      <trkpt lat="44.48417" lon="7.15436">
        <ele>1387.32</ele>
        <time>2018-07-28T13:07:16Z</time>
      </trkpt>
      <trkpt lat="44.48404" lon="7.15443">
        <ele>1383.96</ele>
        <time>2018-07-28T13:07:32Z</time>
      </trkpt>
      <trkpt lat="44.48389" lon="7.15455">
        <ele>1381.07</ele>
        <time>2018-07-28T13:07:49Z</time>
      </trkpt>
      <trkpt lat="44.48375" lon="7.15465">
        <ele>1378.19</ele>
        <time>2018-07-28T13:08:07Z</time>
      </trkpt>
      <trkpt lat="44.48363" lon="7.15464">
        <ele>1376.26</ele>
        <time>2018-07-28T13:08:22Z</time>
      </trkpt>
      <trkpt lat="44.48352" lon="7.15466">
        <ele>1372.9</ele>
        <time>2018-07-28T13:08:35Z</time>
      </trkpt>
      <trkpt lat="44.48339" lon="7.15467">
        <ele>1370.02</ele>
        <time>2018-07-28T13:08:49Z</time>
      </trkpt>
      <trkpt lat="44.48326" lon="7.15466">
        <ele>1367.13</ele>
        <time>2018-07-28T13:09:04Z</time>
      </trkpt>
      <trkpt lat="44.48315" lon="7.15468">
        <ele>1363.77</ele>
        <time>2018-07-28T13:09:16Z</time>
      </trkpt>
      <trkpt lat="44.48305" lon="7.15472">
        <ele>1360.88</ele>
        <time>2018-07-28T13:09:29Z</time>
      </trkpt>
      <trkpt lat="44.48296" lon="7.15476">
        <ele>1357.52</ele>
        <time>2018-07-28T13:09:40Z</time>
      </trkpt>
      <trkpt lat="44.48285" lon="7.1548">
        <ele>1354.15</ele>
        <time>2018-07-28T13:09:55Z</time>
      </trkpt>
      <trkpt lat="44.48275" lon="7.15489">
        <ele>1351.27</ele>
        <time>2018-07-28T13:10:09Z</time>
      </trkpt>
      <trkpt lat="44.48273" lon="7.15503">
        <ele>1348.39</ele>
        <time>2018-07-28T13:10:22Z</time>
      </trkpt>
      <trkpt lat="44.48263" lon="7.15507">
        <ele>1345.5</ele>
        <time>2018-07-28T13:10:36Z</time>
      </trkpt>
      <trkpt lat="44.48253" lon="7.15505">
        <ele>1342.62</ele>
        <time>2018-07-28T13:10:49Z</time>
      </trkpt>
      <trkpt lat="44.48248" lon="7.15517">
        <ele>1339.73</ele>
        <time>2018-07-28T13:11:01Z</time>
      </trkpt>
      <trkpt lat="44.48239" lon="7.15528">
        <ele>1336.85</ele>
        <time>2018-07-28T13:11:15Z</time>
      </trkpt>
      <trkpt lat="44.48242" lon="7.1555">
        <ele>1333.97</ele>
        <time>2018-07-28T13:11:32Z</time>
      </trkpt>
      <trkpt lat="44.48239" lon="7.15562">
        <ele>1333.01</ele>
        <time>2018-07-28T13:11:45Z</time>
      </trkpt>
      <trkpt lat="44.48236" lon="7.15577">
        <ele>1329.64</ele>
        <time>2018-07-28T13:11:57Z</time>
      </trkpt>
      <trkpt lat="44.48221" lon="7.15585">
        <ele>1326.28</ele>
        <time>2018-07-28T13:12:13Z</time>
      </trkpt>
      <trkpt lat="44.48209" lon="7.15593">
        <ele>1322.91</ele>
        <time>2018-07-28T13:12:29Z</time>
      </trkpt>
      <trkpt lat="44.48198" lon="7.156">
        <ele>1321.47</ele>
        <time>2018-07-28T13:12:46Z</time>
      </trkpt>
      <trkpt lat="44.48201" lon="7.15603">
        <ele>1320.51</ele>
        <time>2018-07-28T13:13:04Z</time>
      </trkpt>
      <trkpt lat="44.48201" lon="7.15604">
        <ele>1320.51</ele>
        <time>2018-07-28T13:13:23Z</time>
      </trkpt>
      <trkpt lat="44.48197" lon="7.15605">
        <ele>1320.51</ele>
        <time>2018-07-28T13:13:50Z</time>
      </trkpt>
      <trkpt lat="44.48197" lon="7.15604">
        <ele>1320.51</ele>
        <time>2018-07-28T13:14:19Z</time>
      </trkpt>
      <trkpt lat="44.48199" lon="7.15606">
        <ele>1320.99</ele>
        <time>2018-07-28T13:14:49Z</time>
      </trkpt>
      <trkpt lat="44.48195" lon="7.15605">
        <ele>1320.51</ele>
        <time>2018-07-28T13:15:15Z</time>
      </trkpt>
      <trkpt lat="44.48197" lon="7.15603">
        <ele>1320.51</ele>
        <time>2018-07-28T13:15:40Z</time>
      </trkpt>
      <trkpt lat="44.48197" lon="7.15603">
        <ele>1320.99</ele>
        <time>2018-07-28T13:16:02Z</time>
      </trkpt>
      <trkpt lat="44.48197" lon="7.15608">
        <ele>1320.99</ele>
        <time>2018-07-28T13:16:36Z</time>
      </trkpt>
      <trkpt lat="44.48198" lon="7.15606">
        <ele>1320.99</ele>
        <time>2018-07-28T13:17:05Z</time>
      </trkpt>
      <trkpt lat="44.48196" lon="7.15602">
        <ele>1321.95</ele>
        <time>2018-07-28T13:17:26Z</time>
      </trkpt>
      <trkpt lat="44.48196" lon="7.156">
        <ele>1322.43</ele>
        <time>2018-07-28T13:17:40Z</time>
      </trkpt>
      <trkpt lat="44.48193" lon="7.156">
        <ele>1321.95</ele>
        <time>2018-07-28T13:18:10Z</time>
      </trkpt>
      <trkpt lat="44.48194" lon="7.15597">
        <ele>1321.95</ele>
        <time>2018-07-28T13:18:34Z</time>
      </trkpt>
      <trkpt lat="44.48194" lon="7.15591">
        <ele>1321.95</ele>
        <time>2018-07-28T13:19:12Z</time>
      </trkpt>
      <trkpt lat="44.48194" lon="7.15592">
        <ele>1322.43</ele>
        <time>2018-07-28T13:19:27Z</time>
      </trkpt>
      <trkpt lat="44.482" lon="7.156">
        <ele>1322.43</ele>
        <time>2018-07-28T13:19:54Z</time>
      </trkpt>
      <trkpt lat="44.48204" lon="7.15599">
        <ele>1322.43</ele>
        <time>2018-07-28T13:20:10Z</time>
      </trkpt>
      <trkpt lat="44.48198" lon="7.15599">
        <ele>1321.95</ele>
        <time>2018-07-28T13:20:24Z</time>
      </trkpt>
      <trkpt lat="44.482" lon="7.15595">
        <ele>1321.95</ele>
        <time>2018-07-28T13:20:45Z</time>
      </trkpt>
      <trkpt lat="44.48201" lon="7.15598">
        <ele>1321.95</ele>
        <time>2018-07-28T13:21:13Z</time>
      </trkpt>
      <trkpt lat="44.48203" lon="7.15597">
        <ele>1321.95</ele>
        <time>2018-07-28T13:21:41Z</time>
      </trkpt>
      <trkpt lat="44.48205" lon="7.15599">
        <ele>1321.95</ele>
        <time>2018-07-28T13:22:14Z</time>
      </trkpt>
      <trkpt lat="44.48207" lon="7.15602">
        <ele>1321.95</ele>
        <time>2018-07-28T13:22:48Z</time>
      </trkpt>
      <trkpt lat="44.48206" lon="7.15597">
        <ele>1321.95</ele>
        <time>2018-07-28T13:23:17Z</time>
      </trkpt>
      <trkpt lat="44.482" lon="7.15595">
        <ele>1321.95</ele>
        <time>2018-07-28T13:23:28Z</time>
      </trkpt>
      <trkpt lat="44.48199" lon="7.15568">
        <ele>1320.03</ele>
        <time>2018-07-28T13:23:45Z</time>
      </trkpt>
      <trkpt lat="44.48199" lon="7.15567">
        <ele>1319.55</ele>
        <time>2018-07-28T13:23:46Z</time>
      </trkpt>
      <trkpt lat="44.48199" lon="7.15556">
        <ele>1318.59</ele>
        <time>2018-07-28T13:24:03Z</time>
      </trkpt>
      <trkpt lat="44.48198" lon="7.1556">
        <ele>1318.1</ele>
        <time>2018-07-28T13:24:07Z</time>
      </trkpt>
      <trkpt lat="44.48192" lon="7.15585">
        <ele>1317.62</ele>
        <time>2018-07-28T13:24:24Z</time>
      </trkpt>
      <trkpt lat="44.48196" lon="7.15612">
        <ele>1316.18</ele>
        <time>2018-07-28T13:24:42Z</time>
      </trkpt>
      <trkpt lat="44.48214" lon="7.15618">
        <ele>1315.7</ele>
        <time>2018-07-28T13:24:59Z</time>
      </trkpt>
      <trkpt lat="44.48215" lon="7.15617">
        <ele>1315.22</ele>
        <time>2018-07-28T13:25:00Z</time>
      </trkpt>
      <trkpt lat="44.48226" lon="7.1562">
        <ele>1314.26</ele>
        <time>2018-07-28T13:25:16Z</time>
      </trkpt>
      <trkpt lat="44.48224" lon="7.15633">
        <ele>1311.38</ele>
        <time>2018-07-28T13:25:32Z</time>
      </trkpt>
      <trkpt lat="44.48215" lon="7.15639">
        <ele>1308.01</ele>
        <time>2018-07-28T13:25:46Z</time>
      </trkpt>
      <trkpt lat="44.48203" lon="7.15644">
        <ele>1305.13</ele>
        <time>2018-07-28T13:25:58Z</time>
      </trkpt>
      <trkpt lat="44.48191" lon="7.15648">
        <ele>1302.24</ele>
        <time>2018-07-28T13:26:13Z</time>
      </trkpt>
      <trkpt lat="44.48181" lon="7.15645">
        <ele>1299.84</ele>
        <time>2018-07-28T13:26:25Z</time>
      </trkpt>
      <trkpt lat="44.48177" lon="7.15642">
        <ele>1298.88</ele>
        <time>2018-07-28T13:26:29Z</time>
      </trkpt>
      <trkpt lat="44.48174" lon="7.15645">
        <ele>1295.51</ele>
        <time>2018-07-28T13:26:44Z</time>
      </trkpt>
      <trkpt lat="44.48172" lon="7.15662">
        <ele>1292.15</ele>
        <time>2018-07-28T13:26:58Z</time>
      </trkpt>
      <trkpt lat="44.48174" lon="7.15666">
        <ele>1291.19</ele>
        <time>2018-07-28T13:27:03Z</time>
      </trkpt>
      <trkpt lat="44.4818" lon="7.15677">
        <ele>1287.82</ele>
        <time>2018-07-28T13:27:15Z</time>
      </trkpt>
      <trkpt lat="44.48175" lon="7.15682">
        <ele>1286.38</ele>
        <time>2018-07-28T13:27:22Z</time>
      </trkpt>
      <trkpt lat="44.48164" lon="7.15677">
        <ele>1283.5</ele>
        <time>2018-07-28T13:27:37Z</time>
      </trkpt>
      <trkpt lat="44.4816" lon="7.15674">
        <ele>1282.06</ele>
        <time>2018-07-28T13:27:51Z</time>
      </trkpt>
      <trkpt lat="44.48162" lon="7.15676">
        <ele>1282.06</ele>
        <time>2018-07-28T13:28:27Z</time>
      </trkpt>
      <trkpt lat="44.48162" lon="7.15683">
        <ele>1282.06</ele>
        <time>2018-07-28T13:28:48Z</time>
      </trkpt>
      <trkpt lat="44.48158" lon="7.15686">
        <ele>1281.09</ele>
        <time>2018-07-28T13:29:12Z</time>
      </trkpt>
      <trkpt lat="44.48155" lon="7.15702">
        <ele>1278.21</ele>
        <time>2018-07-28T13:29:26Z</time>
      </trkpt>
      <trkpt lat="44.48151" lon="7.15715">
        <ele>1275.33</ele>
        <time>2018-07-28T13:29:41Z</time>
      </trkpt>
      <trkpt lat="44.48153" lon="7.1572">
        <ele>1273.4</ele>
        <time>2018-07-28T13:29:53Z</time>
      </trkpt>
      <trkpt lat="44.4815" lon="7.15724">
        <ele>1272.44</ele>
        <time>2018-07-28T13:30:04Z</time>
      </trkpt>
      <trkpt lat="44.48147" lon="7.15714">
        <ele>1270.04</ele>
        <time>2018-07-28T13:30:21Z</time>
      </trkpt>
      <trkpt lat="44.48146" lon="7.15713">
        <ele>1270.04</ele>
        <time>2018-07-28T13:30:22Z</time>
      </trkpt>
      <trkpt lat="44.48147" lon="7.15725">
        <ele>1268.6</ele>
        <time>2018-07-28T13:30:34Z</time>
      </trkpt>
      <trkpt lat="44.48148" lon="7.1573">
        <ele>1268.12</ele>
        <time>2018-07-28T13:30:38Z</time>
      </trkpt>
      <trkpt lat="44.48149" lon="7.15743">
        <ele>1266.67</ele>
        <time>2018-07-28T13:30:49Z</time>
      </trkpt>
      <trkpt lat="44.48142" lon="7.15727">
        <ele>1264.75</ele>
        <time>2018-07-28T13:31:05Z</time>
      </trkpt>
      <trkpt lat="44.48139" lon="7.15715">
        <ele>1263.79</ele>
        <time>2018-07-28T13:31:19Z</time>
      </trkpt>
      <trkpt lat="44.48136" lon="7.15724">
        <ele>1261.39</ele>
        <time>2018-07-28T13:31:39Z</time>
      </trkpt>
      <trkpt lat="44.48133" lon="7.15736">
        <ele>1257.54</ele>
        <time>2018-07-28T13:31:53Z</time>
      </trkpt>
      <trkpt lat="44.48133" lon="7.15737">
        <ele>1257.54</ele>
        <time>2018-07-28T13:31:54Z</time>
      </trkpt>
      <trkpt lat="44.48132" lon="7.1575">
        <ele>1255.62</ele>
        <time>2018-07-28T13:32:09Z</time>
      </trkpt>
      <trkpt lat="44.48134" lon="7.15744">
        <ele>1256.1</ele>
        <time>2018-07-28T13:32:32Z</time>
      </trkpt>
      <trkpt lat="44.48136" lon="7.15729">
        <ele>1257.54</ele>
        <time>2018-07-28T13:32:48Z</time>
      </trkpt>
      <trkpt lat="44.48135" lon="7.15723">
        <ele>1258.98</ele>
        <time>2018-07-28T13:33:02Z</time>
      </trkpt>
      <trkpt lat="44.48135" lon="7.15715">
        <ele>1260.91</ele>
        <time>2018-07-28T13:33:18Z</time>
      </trkpt>
      <trkpt lat="44.48135" lon="7.15703">
        <ele>1261.87</ele>
        <time>2018-07-28T13:33:31Z</time>
      </trkpt>
      <trkpt lat="44.48131" lon="7.15688">
        <ele>1260.91</ele>
        <time>2018-07-28T13:33:42Z</time>
      </trkpt>
      <trkpt lat="44.48125" lon="7.15672">
        <ele>1259.46</ele>
        <time>2018-07-28T13:33:57Z</time>
      </trkpt>
      <trkpt lat="44.48119" lon="7.15657">
        <ele>1258.5</ele>
        <time>2018-07-28T13:34:09Z</time>
      </trkpt>
      <trkpt lat="44.48114" lon="7.15642">
        <ele>1257.54</ele>
        <time>2018-07-28T13:34:23Z</time>
      </trkpt>
      <trkpt lat="44.48109" lon="7.15625">
        <ele>1255.62</ele>
        <time>2018-07-28T13:34:38Z</time>
      </trkpt>
      <trkpt lat="44.48106" lon="7.15609">
        <ele>1254.66</ele>
        <time>2018-07-28T13:34:49Z</time>
      </trkpt>
      <trkpt lat="44.48105" lon="7.15597">
        <ele>1253.7</ele>
        <time>2018-07-28T13:34:59Z</time>
      </trkpt>
      <trkpt lat="44.48094" lon="7.15571">
        <ele>1252.25</ele>
        <time>2018-07-28T13:35:19Z</time>
      </trkpt>
      <trkpt lat="44.48086" lon="7.15563">
        <ele>1250.81</ele>
        <time>2018-07-28T13:35:34Z</time>
      </trkpt>
      <trkpt lat="44.48071" lon="7.15562">
        <ele>1250.33</ele>
        <time>2018-07-28T13:35:49Z</time>
      </trkpt>
      <trkpt lat="44.48058" lon="7.15566">
        <ele>1249.37</ele>
        <time>2018-07-28T13:36:00Z</time>
      </trkpt>
      <trkpt lat="44.48053" lon="7.15567">
        <ele>1248.41</ele>
        <time>2018-07-28T13:36:05Z</time>
      </trkpt>
      <trkpt lat="44.48042" lon="7.1555">
        <ele>1246.97</ele>
        <time>2018-07-28T13:36:21Z</time>
      </trkpt>
      <trkpt lat="44.4803" lon="7.15536">
        <ele>1245.04</ele>
        <time>2018-07-28T13:36:35Z</time>
      </trkpt>
      <trkpt lat="44.48026" lon="7.15521">
        <ele>1243.6</ele>
        <time>2018-07-28T13:36:46Z</time>
      </trkpt>
      <trkpt lat="44.48022" lon="7.15504">
        <ele>1243.12</ele>
        <time>2018-07-28T13:37:00Z</time>
      </trkpt>
      <trkpt lat="44.48018" lon="7.15486">
        <ele>1241.2</ele>
        <time>2018-07-28T13:37:14Z</time>
      </trkpt>
      <trkpt lat="44.48009" lon="7.15468">
        <ele>1239.76</ele>
        <time>2018-07-28T13:37:31Z</time>
      </trkpt>
      <trkpt lat="44.47996" lon="7.15459">
        <ele>1238.32</ele>
        <time>2018-07-28T13:37:46Z</time>
      </trkpt>
      <trkpt lat="44.47993" lon="7.15457">
        <ele>1237.35</ele>
        <time>2018-07-28T13:37:52Z</time>
      </trkpt>
      <trkpt lat="44.47978" lon="7.15451">
        <ele>1235.91</ele>
        <time>2018-07-28T13:38:05Z</time>
      </trkpt>
      <trkpt lat="44.4797" lon="7.15457">
        <ele>1234.95</ele>
        <time>2018-07-28T13:38:13Z</time>
      </trkpt>
      <trkpt lat="44.4796" lon="7.15474">
        <ele>1233.99</ele>
        <time>2018-07-28T13:38:26Z</time>
      </trkpt>
      <trkpt lat="44.47944" lon="7.15491">
        <ele>1232.07</ele>
        <time>2018-07-28T13:38:43Z</time>
      </trkpt>
      <trkpt lat="44.47937" lon="7.15496">
        <ele>1231.11</ele>
        <time>2018-07-28T13:38:51Z</time>
      </trkpt>
      <trkpt lat="44.47929" lon="7.155">
        <ele>1230.62</ele>
        <time>2018-07-28T13:38:59Z</time>
      </trkpt>
      <trkpt lat="44.47912" lon="7.15502">
        <ele>1228.7</ele>
        <time>2018-07-28T13:39:17Z</time>
      </trkpt>
      <trkpt lat="44.47896" lon="7.15503">
        <ele>1227.26</ele>
        <time>2018-07-28T13:39:32Z</time>
      </trkpt>
      <trkpt lat="44.47883" lon="7.15506">
        <ele>1225.82</ele>
        <time>2018-07-28T13:39:47Z</time>
      </trkpt>
      <trkpt lat="44.4788" lon="7.15507">
        <ele>1225.82</ele>
        <time>2018-07-28T13:39:51Z</time>
      </trkpt>
      <trkpt lat="44.47859" lon="7.15514">
        <ele>1223.42</ele>
        <time>2018-07-28T13:40:10Z</time>
      </trkpt>
      <trkpt lat="44.4786" lon="7.15517">
        <ele>1222.93</ele>
        <time>2018-07-28T13:40:13Z</time>
      </trkpt>
      <trkpt lat="44.47874" lon="7.1552">
        <ele>1221.01</ele>
        <time>2018-07-28T13:40:27Z</time>
      </trkpt>
      <trkpt lat="44.47888" lon="7.15525">
        <ele>1219.09</ele>
        <time>2018-07-28T13:40:40Z</time>
      </trkpt>
      <trkpt lat="44.47894" lon="7.15528">
        <ele>1219.09</ele>
        <time>2018-07-28T13:40:54Z</time>
      </trkpt>
      <trkpt lat="44.47906" lon="7.1554">
        <ele>1216.69</ele>
        <time>2018-07-28T13:41:14Z</time>
      </trkpt>
      <trkpt lat="44.47909" lon="7.15551">
        <ele>1214.76</ele>
        <time>2018-07-28T13:41:28Z</time>
      </trkpt>
      <trkpt lat="44.47911" lon="7.1556">
        <ele>1212.84</ele>
        <time>2018-07-28T13:41:42Z</time>
      </trkpt>
      <trkpt lat="44.47912" lon="7.15565">
        <ele>1212.84</ele>
        <time>2018-07-28T13:41:56Z</time>
      </trkpt>
      <trkpt lat="44.47915" lon="7.15567">
        <ele>1212.84</ele>
        <time>2018-07-28T13:42:13Z</time>
      </trkpt>
      <trkpt lat="44.47913" lon="7.15574">
        <ele>1213.32</ele>
        <time>2018-07-28T13:42:31Z</time>
      </trkpt>
      <trkpt lat="44.47913" lon="7.15573">
        <ele>1212.84</ele>
        <time>2018-07-28T13:42:47Z</time>
      </trkpt>
      <trkpt lat="44.4792" lon="7.15579">
        <ele>1211.4</ele>
        <time>2018-07-28T13:43:01Z</time>
      </trkpt>
      <trkpt lat="44.47916" lon="7.15583">
        <ele>1209</ele>
        <time>2018-07-28T13:43:16Z</time>
      </trkpt>
      <trkpt lat="44.47912" lon="7.15589">
        <ele>1206.11</ele>
        <time>2018-07-28T13:43:30Z</time>
      </trkpt>
      <trkpt lat="44.47911" lon="7.1559">
        <ele>1204.67</ele>
        <time>2018-07-28T13:43:45Z</time>
      </trkpt>
      <trkpt lat="44.47909" lon="7.15603">
        <ele>1201.3</ele>
        <time>2018-07-28T13:43:56Z</time>
      </trkpt>
      <trkpt lat="44.47902" lon="7.15608">
        <ele>1198.42</ele>
        <time>2018-07-28T13:44:07Z</time>
      </trkpt>
      <trkpt lat="44.47899" lon="7.15616">
        <ele>1195.06</ele>
        <time>2018-07-28T13:44:16Z</time>
      </trkpt>
      <trkpt lat="44.47902" lon="7.15627">
        <ele>1192.17</ele>
        <time>2018-07-28T13:44:27Z</time>
      </trkpt>
      <trkpt lat="44.47901" lon="7.15637">
        <ele>1188.81</ele>
        <time>2018-07-28T13:44:37Z</time>
      </trkpt>
      <trkpt lat="44.47903" lon="7.15643">
        <ele>1186.4</ele>
        <time>2018-07-28T13:44:43Z</time>
      </trkpt>
      <trkpt lat="44.47898" lon="7.15655">
        <ele>1183.04</ele>
        <time>2018-07-28T13:44:53Z</time>
      </trkpt>
      <trkpt lat="44.47896" lon="7.15659">
        <ele>1181.12</ele>
        <time>2018-07-28T13:44:58Z</time>
      </trkpt>
      <trkpt lat="44.47899" lon="7.15669">
        <ele>1178.71</ele>
        <time>2018-07-28T13:45:10Z</time>
      </trkpt>
      <trkpt lat="44.47897" lon="7.15672">
        <ele>1176.31</ele>
        <time>2018-07-28T13:45:21Z</time>
      </trkpt>
      <trkpt lat="44.47899" lon="7.1568">
        <ele>1173.91</ele>
        <time>2018-07-28T13:45:29Z</time>
      </trkpt>
      <trkpt lat="44.47895" lon="7.15688">
        <ele>1171.02</ele>
        <time>2018-07-28T13:45:38Z</time>
      </trkpt>
      <trkpt lat="44.47886" lon="7.15689">
        <ele>1167.66</ele>
        <time>2018-07-28T13:45:49Z</time>
      </trkpt>
      <trkpt lat="44.47881" lon="7.15694">
        <ele>1164.29</ele>
        <time>2018-07-28T13:45:58Z</time>
      </trkpt>
      <trkpt lat="44.47887" lon="7.15703">
        <ele>1161.41</ele>
        <time>2018-07-28T13:46:10Z</time>
      </trkpt>
      <trkpt lat="44.47895" lon="7.1571">
        <ele>1158.05</ele>
        <time>2018-07-28T13:46:22Z</time>
      </trkpt>
      <trkpt lat="44.47903" lon="7.1572">
        <ele>1155.16</ele>
        <time>2018-07-28T13:46:37Z</time>
      </trkpt>
      <trkpt lat="44.47897" lon="7.15726">
        <ele>1151.8</ele>
        <time>2018-07-28T13:46:49Z</time>
      </trkpt>
      <trkpt lat="44.47894" lon="7.15735">
        <ele>1148.91</ele>
        <time>2018-07-28T13:47:01Z</time>
      </trkpt>
      <trkpt lat="44.47887" lon="7.15735">
        <ele>1145.55</ele>
        <time>2018-07-28T13:47:14Z</time>
      </trkpt>
      <trkpt lat="44.47886" lon="7.15735">
        <ele>1145.07</ele>
        <time>2018-07-28T13:47:15Z</time>
      </trkpt>
      <trkpt lat="44.47876" lon="7.15734">
        <ele>1142.18</ele>
        <time>2018-07-28T13:47:29Z</time>
      </trkpt>
      <trkpt lat="44.47864" lon="7.15728">
        <ele>1140.26</ele>
        <time>2018-07-28T13:47:42Z</time>
      </trkpt>
      <trkpt lat="44.47854" lon="7.15726">
        <ele>1137.86</ele>
        <time>2018-07-28T13:47:58Z</time>
      </trkpt>
      <trkpt lat="44.47844" lon="7.15735">
        <ele>1135.94</ele>
        <time>2018-07-28T13:48:09Z</time>
      </trkpt>
      <trkpt lat="44.47829" lon="7.15735">
        <ele>1134.01</ele>
        <time>2018-07-28T13:48:23Z</time>
      </trkpt>
      <trkpt lat="44.47819" lon="7.15736">
        <ele>1131.13</ele>
        <time>2018-07-28T13:48:35Z</time>
      </trkpt>
      <trkpt lat="44.47809" lon="7.15732">
        <ele>1128.24</ele>
        <time>2018-07-28T13:48:50Z</time>
      </trkpt>
      <trkpt lat="44.47799" lon="7.15732">
        <ele>1125.36</ele>
        <time>2018-07-28T13:49:03Z</time>
      </trkpt>
      <trkpt lat="44.47791" lon="7.15736">
        <ele>1122</ele>
        <time>2018-07-28T13:49:18Z</time>
      </trkpt>
      <trkpt lat="44.47779" lon="7.15739">
        <ele>1120.55</ele>
        <time>2018-07-28T13:49:31Z</time>
      </trkpt>
      <trkpt lat="44.4777" lon="7.15735">
        <ele>1118.15</ele>
        <time>2018-07-28T13:49:44Z</time>
      </trkpt>
      <trkpt lat="44.47762" lon="7.15734">
        <ele>1114.79</ele>
        <time>2018-07-28T13:49:58Z</time>
      </trkpt>
      <trkpt lat="44.47752" lon="7.15738">
        <ele>1112.38</ele>
        <time>2018-07-28T13:50:16Z</time>
      </trkpt>
      <trkpt lat="44.47743" lon="7.15741">
        <ele>1109.98</ele>
        <time>2018-07-28T13:50:30Z</time>
      </trkpt>
      <trkpt lat="44.47732" lon="7.1575">
        <ele>1107.1</ele>
        <time>2018-07-28T13:50:46Z</time>
      </trkpt>
      <trkpt lat="44.47722" lon="7.15758">
        <ele>1106.13</ele>
        <time>2018-07-28T13:51:01Z</time>
      </trkpt>
      <trkpt lat="44.47707" lon="7.1576">
        <ele>1105.17</ele>
        <time>2018-07-28T13:51:20Z</time>
      </trkpt>
      <trkpt lat="44.47699" lon="7.15762">
        <ele>1106.13</ele>
        <time>2018-07-28T13:51:40Z</time>
      </trkpt>
      <trkpt lat="44.47699" lon="7.15759">
        <ele>1106.13</ele>
        <time>2018-07-28T13:51:44Z</time>
      </trkpt>
      <trkpt lat="44.47687" lon="7.15739">
        <ele>1106.61</ele>
        <time>2018-07-28T13:52:02Z</time>
      </trkpt>
      <trkpt lat="44.47679" lon="7.15734">
        <ele>1109.02</ele>
        <time>2018-07-28T13:52:17Z</time>
      </trkpt>
      <trkpt lat="44.4767" lon="7.15722">
        <ele>1109.5</ele>
        <time>2018-07-28T13:52:32Z</time>
      </trkpt>
      <trkpt lat="44.47658" lon="7.15716">
        <ele>1109.98</ele>
        <time>2018-07-28T13:52:50Z</time>
      </trkpt>
      <trkpt lat="44.47654" lon="7.15692">
        <ele>1110.46</ele>
        <time>2018-07-28T13:53:07Z</time>
      </trkpt>
      <trkpt lat="44.47647" lon="7.1569">
        <ele>1109.98</ele>
        <time>2018-07-28T13:53:29Z</time>
      </trkpt>
      <trkpt lat="44.47647" lon="7.15667">
        <ele>1109.5</ele>
        <time>2018-07-28T13:53:44Z</time>
      </trkpt>
      <trkpt lat="44.47641" lon="7.15656">
        <ele>1108.06</ele>
        <time>2018-07-28T13:53:58Z</time>
      </trkpt>
      <trkpt lat="44.47638" lon="7.1565">
        <ele>1107.58</ele>
        <time>2018-07-28T13:54:04Z</time>
      </trkpt>
      <trkpt lat="44.4763" lon="7.15635">
        <ele>1106.61</ele>
        <time>2018-07-28T13:54:17Z</time>
      </trkpt>
      <trkpt lat="44.47627" lon="7.15621">
        <ele>1105.17</ele>
        <time>2018-07-28T13:54:28Z</time>
      </trkpt>
      <trkpt lat="44.47625" lon="7.15613">
        <ele>1105.17</ele>
        <time>2018-07-28T13:54:35Z</time>
      </trkpt>
      <trkpt lat="44.47619" lon="7.15605">
        <ele>1102.77</ele>
        <time>2018-07-28T13:54:47Z</time>
      </trkpt>
      <trkpt lat="44.47608" lon="7.15608">
        <ele>1100.85</ele>
        <time>2018-07-28T13:55:01Z</time>
      </trkpt>
      <trkpt lat="44.47595" lon="7.15611">
        <ele>1098.92</ele>
        <time>2018-07-28T13:55:16Z</time>
      </trkpt>
      <trkpt lat="44.47585" lon="7.15614">
        <ele>1097</ele>
        <time>2018-07-28T13:55:30Z</time>
      </trkpt>
      <trkpt lat="44.47584" lon="7.15619">
        <ele>1096.52</ele>
        <time>2018-07-28T13:55:43Z</time>
      </trkpt>
      <trkpt lat="44.47583" lon="7.15619">
        <ele>1096.52</ele>
        <time>2018-07-28T13:56:01Z</time>
      </trkpt>
      <trkpt lat="44.4758" lon="7.15624">
        <ele>1096.04</ele>
        <time>2018-07-28T13:56:27Z</time>
      </trkpt>
      <trkpt lat="44.47571" lon="7.15624">
        <ele>1095.56</ele>
        <time>2018-07-28T13:56:42Z</time>
      </trkpt>
      <trkpt lat="44.47574" lon="7.15622">
        <ele>1095.56</ele>
        <time>2018-07-28T13:56:59Z</time>
      </trkpt>
      <trkpt lat="44.47572" lon="7.15623">
        <ele>1095.56</ele>
        <time>2018-07-28T13:57:16Z</time>
      </trkpt>
      <trkpt lat="44.47573" lon="7.15621">
        <ele>1095.56</ele>
        <time>2018-07-28T13:57:38Z</time>
      </trkpt>
      <trkpt lat="44.47568" lon="7.15617">
        <ele>1096.04</ele>
        <time>2018-07-28T13:57:59Z</time>
      </trkpt>
      <trkpt lat="44.4757" lon="7.1562">
        <ele>1095.56</ele>
        <time>2018-07-28T13:58:14Z</time>
      </trkpt>
      <trkpt lat="44.47574" lon="7.15618">
        <ele>1095.56</ele>
        <time>2018-07-28T13:58:29Z</time>
      </trkpt>
      <trkpt lat="44.47574" lon="7.1562">
        <ele>1096.04</ele>
        <time>2018-07-28T13:58:48Z</time>
      </trkpt>
      <trkpt lat="44.47574" lon="7.15621">
        <ele>1096.04</ele>
        <time>2018-07-28T13:59:09Z</time>
      </trkpt>
      <trkpt lat="44.47571" lon="7.15621">
        <ele>1096.04</ele>
        <time>2018-07-28T13:59:27Z</time>
      </trkpt>
      <trkpt lat="44.4757" lon="7.1562">
        <ele>1096.04</ele>
        <time>2018-07-28T13:59:43Z</time>
      </trkpt>
      <trkpt lat="44.47571" lon="7.15618">
        <ele>1096.04</ele>
        <time>2018-07-28T14:00:11Z</time>
      </trkpt>
      <trkpt lat="44.47572" lon="7.1562">
        <ele>1096.04</ele>
        <time>2018-07-28T14:00:36Z</time>
      </trkpt>
      <trkpt lat="44.4757" lon="7.15621">
        <ele>1096.04</ele>
        <time>2018-07-28T14:01:05Z</time>
      </trkpt>
      <trkpt lat="44.47567" lon="7.15619">
        <ele>1096.04</ele>
        <time>2018-07-28T14:01:28Z</time>
      </trkpt>
      <trkpt lat="44.47565" lon="7.15615">
        <ele>1096.04</ele>
        <time>2018-07-28T14:01:53Z</time>
      </trkpt>
      <trkpt lat="44.47568" lon="7.15616">
        <ele>1096.04</ele>
        <time>2018-07-28T14:02:23Z</time>
      </trkpt>
      <trkpt lat="44.47567" lon="7.1562">
        <ele>1096.04</ele>
        <time>2018-07-28T14:02:45Z</time>
      </trkpt>
      <trkpt lat="44.4757" lon="7.15623">
        <ele>1096.04</ele>
        <time>2018-07-28T14:03:19Z</time>
      </trkpt>
      <trkpt lat="44.4757" lon="7.15621">
        <ele>1095.56</ele>
        <time>2018-07-28T14:03:48Z</time>
      </trkpt>
      <trkpt lat="44.47569" lon="7.15619">
        <ele>1095.56</ele>
        <time>2018-07-28T14:04:13Z</time>
      </trkpt>
      <trkpt lat="44.47569" lon="7.15614">
        <ele>1096.52</ele>
        <time>2018-07-28T14:04:39Z</time>
      </trkpt>
      <trkpt lat="44.47567" lon="7.15616">
        <ele>1095.56</ele>
        <time>2018-07-28T14:05:05Z</time>
      </trkpt>
      <trkpt lat="44.47571" lon="7.15618">
        <ele>1095.56</ele>
        <time>2018-07-28T14:05:30Z</time>
      </trkpt>
      <trkpt lat="44.47572" lon="7.15618">
        <ele>1095.56</ele>
        <time>2018-07-28T14:05:59Z</time>
      </trkpt>
      <trkpt lat="44.47571" lon="7.15618">
        <ele>1095.56</ele>
        <time>2018-07-28T14:06:21Z</time>
      </trkpt>
      <trkpt lat="44.47569" lon="7.15612">
        <ele>1095.56</ele>
        <time>2018-07-28T14:06:53Z</time>
      </trkpt>
      <trkpt lat="44.47567" lon="7.15613">
        <ele>1095.08</ele>
        <time>2018-07-28T14:07:10Z</time>
      </trkpt>
      <trkpt lat="44.47551" lon="7.15613">
        <ele>1093.64</ele>
        <time>2018-07-28T14:07:22Z</time>
      </trkpt>
      <trkpt lat="44.47546" lon="7.1561">
        <ele>1093.16</ele>
        <time>2018-07-28T14:07:29Z</time>
      </trkpt>
      <trkpt lat="44.47541" lon="7.15608">
        <ele>1092.2</ele>
        <time>2018-07-28T14:07:35Z</time>
      </trkpt>
      <trkpt lat="44.47535" lon="7.15605">
        <ele>1091.23</ele>
        <time>2018-07-28T14:07:41Z</time>
      </trkpt>
      <trkpt lat="44.4752" lon="7.156">
        <ele>1088.83</ele>
        <time>2018-07-28T14:07:57Z</time>
      </trkpt>
      <trkpt lat="44.47512" lon="7.15599">
        <ele>1087.87</ele>
        <time>2018-07-28T14:08:06Z</time>
      </trkpt>
      <trkpt lat="44.47511" lon="7.15599">
        <ele>1087.39</ele>
        <time>2018-07-28T14:08:08Z</time>
      </trkpt>
      <trkpt lat="44.47501" lon="7.15597">
        <ele>1086.43</ele>
        <time>2018-07-28T14:08:19Z</time>
      </trkpt>
      <trkpt lat="44.47497" lon="7.15597">
        <ele>1085.95</ele>
        <time>2018-07-28T14:08:22Z</time>
      </trkpt>
      <trkpt lat="44.47483" lon="7.15586">
        <ele>1085.47</ele>
        <time>2018-07-28T14:08:37Z</time>
      </trkpt>
      <trkpt lat="44.47464" lon="7.15572">
        <ele>1085.47</ele>
        <time>2018-07-28T14:08:57Z</time>
      </trkpt>
      <trkpt lat="44.47452" lon="7.15562">
        <ele>1084.5</ele>
        <time>2018-07-28T14:09:11Z</time>
      </trkpt>
      <trkpt lat="44.47441" lon="7.15556">
        <ele>1083.54</ele>
        <time>2018-07-28T14:09:25Z</time>
      </trkpt>
      <trkpt lat="44.47428" lon="7.15554">
        <ele>1082.1</ele>
        <time>2018-07-28T14:09:39Z</time>
      </trkpt>
      <trkpt lat="44.47426" lon="7.15555">
        <ele>1082.1</ele>
        <time>2018-07-28T14:09:41Z</time>
      </trkpt>
      <trkpt lat="44.47423" lon="7.15562">
        <ele>1081.62</ele>
        <time>2018-07-28T14:09:47Z</time>
      </trkpt>
      <trkpt lat="44.47425" lon="7.15573">
        <ele>1079.7</ele>
        <time>2018-07-28T14:09:59Z</time>
      </trkpt>
      <trkpt lat="44.47425" lon="7.15586">
        <ele>1077.78</ele>
        <time>2018-07-28T14:10:13Z</time>
      </trkpt>
      <trkpt lat="44.47435" lon="7.15593">
        <ele>1075.85</ele>
        <time>2018-07-28T14:10:26Z</time>
      </trkpt>
      <trkpt lat="44.47439" lon="7.15596">
        <ele>1075.37</ele>
        <time>2018-07-28T14:10:40Z</time>
      </trkpt>
      <trkpt lat="44.47442" lon="7.156">
        <ele>1074.41</ele>
        <time>2018-07-28T14:10:45Z</time>
      </trkpt>
      <trkpt lat="44.47451" lon="7.15614">
        <ele>1072.01</ele>
        <time>2018-07-28T14:11:02Z</time>
      </trkpt>
      <trkpt lat="44.47464" lon="7.15627">
        <ele>1071.53</ele>
        <time>2018-07-28T14:11:22Z</time>
      </trkpt>
      <trkpt lat="44.47466" lon="7.15629">
        <ele>1071.53</ele>
        <time>2018-07-28T14:11:26Z</time>
      </trkpt>
    </trkseg>
  </trk>
</gpx>